<?xml version="1.0" encoding="UTF-8" standalone="no" ?>
<gpx xmlns="http://www.topografix.com/GPX/1/1" xmlns:xsi="http://www.w3.org/2001/XMLSchema-instance" xsi:schemaLocation="http://www.topografix.com/GPX/1/1 http://www.topografix.com/GPX/1/1/gpx.xsd" version="1.1" creator="VisuGPX - https://www.visugpx.com">
  <metadata>
    <name>2017 PLM RECO Chaumont Gournay</name>
    <desc><![CDATA[CHAUMONT GOURNAY Active Log HW
Reconnaissance réalisée le jeudi 16 mars 2017. ]]></desc>
  </metadata>
  <trk>
    <name><![CDATA[ACTIVE LOG- 16 MAR 2017 Plm2017 etape 1 chaumont g...]]></name>
    <trkseg>
      <trkpt lat="49.26172" lon="1.87058">
        <ele>81</ele>
        <time>2017-03-16T08:47:31Z</time>
      </trkpt>
      <trkpt lat="49.2617" lon="1.87101">
        <ele>81</ele>
        <time>2017-03-16T08:57:02Z</time>
      </trkpt>
      <trkpt lat="49.26184" lon="1.87045">
        <ele>80</ele>
        <time>2017-03-16T08:57:26Z</time>
      </trkpt>
      <trkpt lat="49.26198" lon="1.86985">
        <ele>78</ele>
        <time>2017-03-16T08:57:41Z</time>
      </trkpt>
      <trkpt lat="49.26187" lon="1.87038">
        <ele>80</ele>
        <time>2017-03-16T08:57:53Z</time>
      </trkpt>
      <trkpt lat="49.26165" lon="1.87093">
        <ele>81</ele>
        <time>2017-03-16T08:58:03Z</time>
      </trkpt>
      <trkpt lat="49.26151" lon="1.87149">
        <ele>82</ele>
        <time>2017-03-16T08:58:15Z</time>
      </trkpt>
      <trkpt lat="49.26145" lon="1.8721">
        <ele>81</ele>
        <time>2017-03-16T08:58:27Z</time>
      </trkpt>
      <trkpt lat="49.26135" lon="1.87254">
        <ele>79</ele>
        <time>2017-03-16T08:58:43Z</time>
      </trkpt>
      <trkpt lat="49.26142" lon="1.87289">
        <ele>78</ele>
        <time>2017-03-16T08:59:12Z</time>
      </trkpt>
      <trkpt lat="49.26158" lon="1.87349">
        <ele>76</ele>
        <time>2017-03-16T08:59:21Z</time>
      </trkpt>
      <trkpt lat="49.26171" lon="1.87409">
        <ele>75</ele>
        <time>2017-03-16T08:59:28Z</time>
      </trkpt>
      <trkpt lat="49.26183" lon="1.87466">
        <ele>75</ele>
        <time>2017-03-16T08:59:34Z</time>
      </trkpt>
      <trkpt lat="49.26197" lon="1.87529">
        <ele>75</ele>
        <time>2017-03-16T08:59:41Z</time>
      </trkpt>
      <trkpt lat="49.26213" lon="1.87585">
        <ele>76</ele>
        <time>2017-03-16T08:59:50Z</time>
      </trkpt>
      <trkpt lat="49.26228" lon="1.8764">
        <ele>77</ele>
        <time>2017-03-16T08:59:58Z</time>
      </trkpt>
      <trkpt lat="49.26234" lon="1.87703">
        <ele>80</ele>
        <time>2017-03-16T09:00:08Z</time>
      </trkpt>
      <trkpt lat="49.2624" lon="1.8776">
        <ele>84</ele>
        <time>2017-03-16T09:00:19Z</time>
      </trkpt>
      <trkpt lat="49.2625" lon="1.87816">
        <ele>87</ele>
        <time>2017-03-16T09:00:30Z</time>
      </trkpt>
      <trkpt lat="49.26244" lon="1.87869">
        <ele>87</ele>
        <time>2017-03-16T09:00:42Z</time>
      </trkpt>
      <trkpt lat="49.26217" lon="1.8791">
        <ele>85</ele>
        <time>2017-03-16T09:00:51Z</time>
      </trkpt>
      <trkpt lat="49.26183" lon="1.87898">
        <ele>84</ele>
        <time>2017-03-16T09:00:58Z</time>
      </trkpt>
      <trkpt lat="49.26147" lon="1.87886">
        <ele>85</ele>
        <time>2017-03-16T09:01:08Z</time>
      </trkpt>
      <trkpt lat="49.2611" lon="1.87857">
        <ele>89</ele>
        <time>2017-03-16T09:01:23Z</time>
      </trkpt>
      <trkpt lat="49.26083" lon="1.87809">
        <ele>92</ele>
        <time>2017-03-16T09:01:41Z</time>
      </trkpt>
      <trkpt lat="49.26078" lon="1.87746">
        <ele>89</ele>
        <time>2017-03-16T09:01:55Z</time>
      </trkpt>
      <trkpt lat="49.26074" lon="1.87676">
        <ele>83</ele>
        <time>2017-03-16T09:02:05Z</time>
      </trkpt>
      <trkpt lat="49.26071" lon="1.87607">
        <ele>80</ele>
        <time>2017-03-16T09:02:13Z</time>
      </trkpt>
      <trkpt lat="49.26067" lon="1.87541">
        <ele>79</ele>
        <time>2017-03-16T09:02:20Z</time>
      </trkpt>
      <trkpt lat="49.26064" lon="1.87474">
        <ele>79</ele>
        <time>2017-03-16T09:02:27Z</time>
      </trkpt>
      <trkpt lat="49.2606" lon="1.87407">
        <ele>79</ele>
        <time>2017-03-16T09:02:34Z</time>
      </trkpt>
      <trkpt lat="49.2606" lon="1.87344">
        <ele>79</ele>
        <time>2017-03-16T09:02:41Z</time>
      </trkpt>
      <trkpt lat="49.26064" lon="1.87282">
        <ele>81</ele>
        <time>2017-03-16T09:02:49Z</time>
      </trkpt>
      <trkpt lat="49.26074" lon="1.87218">
        <ele>83</ele>
        <time>2017-03-16T09:03:00Z</time>
      </trkpt>
      <trkpt lat="49.26089" lon="1.8716">
        <ele>84</ele>
        <time>2017-03-16T09:03:09Z</time>
      </trkpt>
      <trkpt lat="49.26101" lon="1.87095">
        <ele>84</ele>
        <time>2017-03-16T09:03:18Z</time>
      </trkpt>
      <trkpt lat="49.26112" lon="1.87039">
        <ele>84</ele>
        <time>2017-03-16T09:03:26Z</time>
      </trkpt>
      <trkpt lat="49.26127" lon="1.86981">
        <ele>84</ele>
        <time>2017-03-16T09:03:35Z</time>
      </trkpt>
      <trkpt lat="49.26152" lon="1.86934">
        <ele>83</ele>
        <time>2017-03-16T09:03:46Z</time>
      </trkpt>
      <trkpt lat="49.26162" lon="1.86874">
        <ele>84</ele>
        <time>2017-03-16T09:04:10Z</time>
      </trkpt>
      <trkpt lat="49.26169" lon="1.86813">
        <ele>85</ele>
        <time>2017-03-16T09:04:26Z</time>
      </trkpt>
      <trkpt lat="49.26175" lon="1.8675">
        <ele>84</ele>
        <time>2017-03-16T09:04:44Z</time>
      </trkpt>
      <trkpt lat="49.26174" lon="1.86694">
        <ele>86</ele>
        <time>2017-03-16T09:05:01Z</time>
      </trkpt>
      <trkpt lat="49.26177" lon="1.86629">
        <ele>86</ele>
        <time>2017-03-16T09:05:15Z</time>
      </trkpt>
      <trkpt lat="49.26177" lon="1.86565">
        <ele>87</ele>
        <time>2017-03-16T09:05:29Z</time>
      </trkpt>
      <trkpt lat="49.26177" lon="1.86505">
        <ele>87</ele>
        <time>2017-03-16T09:05:38Z</time>
      </trkpt>
      <trkpt lat="49.26182" lon="1.86448">
        <ele>86</ele>
        <time>2017-03-16T09:05:49Z</time>
      </trkpt>
      <trkpt lat="49.26169" lon="1.86392">
        <ele>89</ele>
        <time>2017-03-16T09:06:01Z</time>
      </trkpt>
      <trkpt lat="49.26164" lon="1.86331">
        <ele>91</ele>
        <time>2017-03-16T09:06:10Z</time>
      </trkpt>
      <trkpt lat="49.26161" lon="1.86282">
        <ele>92</ele>
        <time>2017-03-16T09:06:21Z</time>
      </trkpt>
      <trkpt lat="49.26163" lon="1.862">
        <ele>92</ele>
        <time>2017-03-16T09:07:04Z</time>
      </trkpt>
      <trkpt lat="49.26153" lon="1.86139">
        <ele>94</ele>
        <time>2017-03-16T09:07:33Z</time>
      </trkpt>
      <trkpt lat="49.26146" lon="1.86067">
        <ele>97</ele>
        <time>2017-03-16T09:07:53Z</time>
      </trkpt>
      <trkpt lat="49.26148" lon="1.86008">
        <ele>98</ele>
        <time>2017-03-16T09:08:03Z</time>
      </trkpt>
      <trkpt lat="49.26152" lon="1.85948">
        <ele>97</ele>
        <time>2017-03-16T09:08:11Z</time>
      </trkpt>
      <trkpt lat="49.26158" lon="1.85885">
        <ele>96</ele>
        <time>2017-03-16T09:08:20Z</time>
      </trkpt>
      <trkpt lat="49.26168" lon="1.8582">
        <ele>96</ele>
        <time>2017-03-16T09:08:31Z</time>
      </trkpt>
      <trkpt lat="49.26183" lon="1.85764">
        <ele>94</ele>
        <time>2017-03-16T09:08:41Z</time>
      </trkpt>
      <trkpt lat="49.26202" lon="1.85711">
        <ele>93</ele>
        <time>2017-03-16T09:08:51Z</time>
      </trkpt>
      <trkpt lat="49.26221" lon="1.85655">
        <ele>92</ele>
        <time>2017-03-16T09:09:01Z</time>
      </trkpt>
      <trkpt lat="49.26223" lon="1.85593">
        <ele>93</ele>
        <time>2017-03-16T09:09:11Z</time>
      </trkpt>
      <trkpt lat="49.26223" lon="1.85532">
        <ele>95</ele>
        <time>2017-03-16T09:09:25Z</time>
      </trkpt>
      <trkpt lat="49.26233" lon="1.85473">
        <ele>95</ele>
        <time>2017-03-16T09:09:47Z</time>
      </trkpt>
      <trkpt lat="49.26245" lon="1.85414">
        <ele>97</ele>
        <time>2017-03-16T09:10:03Z</time>
      </trkpt>
      <trkpt lat="49.26263" lon="1.85356">
        <ele>97</ele>
        <time>2017-03-16T09:10:14Z</time>
      </trkpt>
      <trkpt lat="49.26283" lon="1.85301">
        <ele>96</ele>
        <time>2017-03-16T09:10:26Z</time>
      </trkpt>
      <trkpt lat="49.26312" lon="1.85225">
        <ele>96</ele>
        <time>2017-03-16T09:12:37Z</time>
      </trkpt>
      <trkpt lat="49.26334" lon="1.85172">
        <ele>95</ele>
        <time>2017-03-16T09:12:53Z</time>
      </trkpt>
      <trkpt lat="49.26363" lon="1.85123">
        <ele>92</ele>
        <time>2017-03-16T09:13:04Z</time>
      </trkpt>
      <trkpt lat="49.26393" lon="1.85078">
        <ele>92</ele>
        <time>2017-03-16T09:13:14Z</time>
      </trkpt>
      <trkpt lat="49.26426" lon="1.85039">
        <ele>95</ele>
        <time>2017-03-16T09:13:26Z</time>
      </trkpt>
      <trkpt lat="49.26463" lon="1.85008">
        <ele>98</ele>
        <time>2017-03-16T09:13:42Z</time>
      </trkpt>
      <trkpt lat="49.26501" lon="1.84978">
        <ele>100</ele>
        <time>2017-03-16T09:14:04Z</time>
      </trkpt>
      <trkpt lat="49.26552" lon="1.84937">
        <ele>102</ele>
        <time>2017-03-16T09:14:50Z</time>
      </trkpt>
      <trkpt lat="49.26586" lon="1.84888">
        <ele>108</ele>
        <time>2017-03-16T09:15:31Z</time>
      </trkpt>
      <trkpt lat="49.26625" lon="1.84871">
        <ele>109</ele>
        <time>2017-03-16T09:15:53Z</time>
      </trkpt>
      <trkpt lat="49.26666" lon="1.84863">
        <ele>109</ele>
        <time>2017-03-16T09:16:00Z</time>
      </trkpt>
      <trkpt lat="49.26707" lon="1.84863">
        <ele>107</ele>
        <time>2017-03-16T09:16:13Z</time>
      </trkpt>
      <trkpt lat="49.26748" lon="1.8486">
        <ele>106</ele>
        <time>2017-03-16T09:16:28Z</time>
      </trkpt>
      <trkpt lat="49.2679" lon="1.84852">
        <ele>103</ele>
        <time>2017-03-16T09:16:41Z</time>
      </trkpt>
      <trkpt lat="49.26832" lon="1.84832">
        <ele>103</ele>
        <time>2017-03-16T09:16:50Z</time>
      </trkpt>
      <trkpt lat="49.2686" lon="1.84798">
        <ele>105</ele>
        <time>2017-03-16T09:17:00Z</time>
      </trkpt>
      <trkpt lat="49.26897" lon="1.84745">
        <ele>105</ele>
        <time>2017-03-16T09:17:19Z</time>
      </trkpt>
      <trkpt lat="49.26933" lon="1.84713">
        <ele>102</ele>
        <time>2017-03-16T09:17:27Z</time>
      </trkpt>
      <trkpt lat="49.26972" lon="1.84684">
        <ele>99</ele>
        <time>2017-03-16T09:17:37Z</time>
      </trkpt>
      <trkpt lat="49.27012" lon="1.84651">
        <ele>98</ele>
        <time>2017-03-16T09:17:51Z</time>
      </trkpt>
      <trkpt lat="49.27051" lon="1.8464">
        <ele>97</ele>
        <time>2017-03-16T09:18:02Z</time>
      </trkpt>
      <trkpt lat="49.27093" lon="1.84626">
        <ele>98</ele>
        <time>2017-03-16T09:18:13Z</time>
      </trkpt>
      <trkpt lat="49.27131" lon="1.84596">
        <ele>102</ele>
        <time>2017-03-16T09:18:28Z</time>
      </trkpt>
      <trkpt lat="49.27183" lon="1.84546">
        <ele>111</ele>
        <time>2017-03-16T09:19:19Z</time>
      </trkpt>
      <trkpt lat="49.27227" lon="1.84531">
        <ele>113</ele>
        <time>2017-03-16T09:20:09Z</time>
      </trkpt>
      <trkpt lat="49.27268" lon="1.84498">
        <ele>112</ele>
        <time>2017-03-16T09:20:43Z</time>
      </trkpt>
      <trkpt lat="49.27292" lon="1.84437">
        <ele>113</ele>
        <time>2017-03-16T09:20:58Z</time>
      </trkpt>
      <trkpt lat="49.27318" lon="1.84383">
        <ele>108</ele>
        <time>2017-03-16T09:21:07Z</time>
      </trkpt>
      <trkpt lat="49.27343" lon="1.84327">
        <ele>100</ele>
        <time>2017-03-16T09:21:13Z</time>
      </trkpt>
      <trkpt lat="49.27375" lon="1.84297">
        <ele>95</ele>
        <time>2017-03-16T09:21:23Z</time>
      </trkpt>
      <trkpt lat="49.27408" lon="1.8432">
        <ele>91</ele>
        <time>2017-03-16T09:21:38Z</time>
      </trkpt>
      <trkpt lat="49.27434" lon="1.84374">
        <ele>87</ele>
        <time>2017-03-16T09:21:48Z</time>
      </trkpt>
      <trkpt lat="49.27461" lon="1.84427">
        <ele>82</ele>
        <time>2017-03-16T09:21:57Z</time>
      </trkpt>
      <trkpt lat="49.27484" lon="1.84493">
        <ele>78</ele>
        <time>2017-03-16T09:22:05Z</time>
      </trkpt>
      <trkpt lat="49.27515" lon="1.84547">
        <ele>73</ele>
        <time>2017-03-16T09:22:13Z</time>
      </trkpt>
      <trkpt lat="49.27543" lon="1.84591">
        <ele>69</ele>
        <time>2017-03-16T09:22:20Z</time>
      </trkpt>
      <trkpt lat="49.27574" lon="1.84628">
        <ele>65</ele>
        <time>2017-03-16T09:22:28Z</time>
      </trkpt>
      <trkpt lat="49.2758" lon="1.84686">
        <ele>62</ele>
        <time>2017-03-16T09:22:41Z</time>
      </trkpt>
      <trkpt lat="49.27558" lon="1.84742">
        <ele>63</ele>
        <time>2017-03-16T09:22:49Z</time>
      </trkpt>
      <trkpt lat="49.27575" lon="1.84781">
        <ele>60</ele>
        <time>2017-03-16T09:22:57Z</time>
      </trkpt>
      <trkpt lat="49.27617" lon="1.8478">
        <ele>58</ele>
        <time>2017-03-16T09:23:05Z</time>
      </trkpt>
      <trkpt lat="49.27658" lon="1.84803">
        <ele>58</ele>
        <time>2017-03-16T09:23:14Z</time>
      </trkpt>
      <trkpt lat="49.27696" lon="1.8482">
        <ele>58</ele>
        <time>2017-03-16T09:23:23Z</time>
      </trkpt>
      <trkpt lat="49.27733" lon="1.84841">
        <ele>59</ele>
        <time>2017-03-16T09:23:33Z</time>
      </trkpt>
      <trkpt lat="49.27771" lon="1.84834">
        <ele>59</ele>
        <time>2017-03-16T09:23:44Z</time>
      </trkpt>
      <trkpt lat="49.27806" lon="1.84804">
        <ele>60</ele>
        <time>2017-03-16T09:23:54Z</time>
      </trkpt>
      <trkpt lat="49.27888" lon="1.84738">
        <ele>65</ele>
        <time>2017-03-16T09:24:20Z</time>
      </trkpt>
      <trkpt lat="49.27925" lon="1.84711">
        <ele>67</ele>
        <time>2017-03-16T09:24:33Z</time>
      </trkpt>
      <trkpt lat="49.27962" lon="1.84683">
        <ele>69</ele>
        <time>2017-03-16T09:24:47Z</time>
      </trkpt>
      <trkpt lat="49.28" lon="1.84654">
        <ele>71</ele>
        <time>2017-03-16T09:25:00Z</time>
      </trkpt>
      <trkpt lat="49.28038" lon="1.84625">
        <ele>71</ele>
        <time>2017-03-16T09:25:12Z</time>
      </trkpt>
      <trkpt lat="49.28075" lon="1.84597">
        <ele>71</ele>
        <time>2017-03-16T09:25:23Z</time>
      </trkpt>
      <trkpt lat="49.28114" lon="1.84569">
        <ele>71</ele>
        <time>2017-03-16T09:25:33Z</time>
      </trkpt>
      <trkpt lat="49.28149" lon="1.84538">
        <ele>72</ele>
        <time>2017-03-16T09:25:42Z</time>
      </trkpt>
      <trkpt lat="49.28183" lon="1.84504">
        <ele>73</ele>
        <time>2017-03-16T09:25:52Z</time>
      </trkpt>
      <trkpt lat="49.28217" lon="1.84466">
        <ele>74</ele>
        <time>2017-03-16T09:26:09Z</time>
      </trkpt>
      <trkpt lat="49.2825" lon="1.8443">
        <ele>75</ele>
        <time>2017-03-16T09:26:20Z</time>
      </trkpt>
      <trkpt lat="49.28281" lon="1.84386">
        <ele>76</ele>
        <time>2017-03-16T09:26:31Z</time>
      </trkpt>
      <trkpt lat="49.28307" lon="1.84338">
        <ele>76</ele>
        <time>2017-03-16T09:26:41Z</time>
      </trkpt>
      <trkpt lat="49.28336" lon="1.84293">
        <ele>77</ele>
        <time>2017-03-16T09:26:51Z</time>
      </trkpt>
      <trkpt lat="49.28366" lon="1.84252">
        <ele>78</ele>
        <time>2017-03-16T09:27:03Z</time>
      </trkpt>
      <trkpt lat="49.28397" lon="1.84204">
        <ele>78</ele>
        <time>2017-03-16T09:27:14Z</time>
      </trkpt>
      <trkpt lat="49.28421" lon="1.84154">
        <ele>78</ele>
        <time>2017-03-16T09:27:23Z</time>
      </trkpt>
      <trkpt lat="49.28442" lon="1.84099">
        <ele>78</ele>
        <time>2017-03-16T09:27:32Z</time>
      </trkpt>
      <trkpt lat="49.28458" lon="1.84042">
        <ele>79</ele>
        <time>2017-03-16T09:27:41Z</time>
      </trkpt>
      <trkpt lat="49.28475" lon="1.83983">
        <ele>79</ele>
        <time>2017-03-16T09:27:50Z</time>
      </trkpt>
      <trkpt lat="49.28493" lon="1.83921">
        <ele>79</ele>
        <time>2017-03-16T09:28:00Z</time>
      </trkpt>
      <trkpt lat="49.28519" lon="1.83871">
        <ele>79</ele>
        <time>2017-03-16T09:28:16Z</time>
      </trkpt>
      <trkpt lat="49.28555" lon="1.83828">
        <ele>79</ele>
        <time>2017-03-16T09:28:26Z</time>
      </trkpt>
      <trkpt lat="49.28591" lon="1.83793">
        <ele>79</ele>
        <time>2017-03-16T09:28:33Z</time>
      </trkpt>
      <trkpt lat="49.28632" lon="1.83773">
        <ele>77</ele>
        <time>2017-03-16T09:28:39Z</time>
      </trkpt>
      <trkpt lat="49.2867" lon="1.83747">
        <ele>74</ele>
        <time>2017-03-16T09:28:45Z</time>
      </trkpt>
      <trkpt lat="49.28704" lon="1.83721">
        <ele>71</ele>
        <time>2017-03-16T09:28:54Z</time>
      </trkpt>
      <trkpt lat="49.28715" lon="1.83666">
        <ele>67</ele>
        <time>2017-03-16T09:29:07Z</time>
      </trkpt>
      <trkpt lat="49.28732" lon="1.8361">
        <ele>65</ele>
        <time>2017-03-16T09:29:15Z</time>
      </trkpt>
      <trkpt lat="49.28767" lon="1.83576">
        <ele>63</ele>
        <time>2017-03-16T09:29:34Z</time>
      </trkpt>
      <trkpt lat="49.28813" lon="1.83575">
        <ele>63</ele>
        <time>2017-03-16T09:29:50Z</time>
      </trkpt>
      <trkpt lat="49.28852" lon="1.83578">
        <ele>63</ele>
        <time>2017-03-16T09:30:01Z</time>
      </trkpt>
      <trkpt lat="49.28885" lon="1.83538">
        <ele>64</ele>
        <time>2017-03-16T09:30:14Z</time>
      </trkpt>
      <trkpt lat="49.28906" lon="1.83489">
        <ele>66</ele>
        <time>2017-03-16T09:30:28Z</time>
      </trkpt>
      <trkpt lat="49.28925" lon="1.83432">
        <ele>69</ele>
        <time>2017-03-16T09:30:49Z</time>
      </trkpt>
      <trkpt lat="49.28947" lon="1.8338">
        <ele>73</ele>
        <time>2017-03-16T09:31:03Z</time>
      </trkpt>
      <trkpt lat="49.28977" lon="1.83333">
        <ele>75</ele>
        <time>2017-03-16T09:31:19Z</time>
      </trkpt>
      <trkpt lat="49.29011" lon="1.83303">
        <ele>76</ele>
        <time>2017-03-16T09:31:37Z</time>
      </trkpt>
      <trkpt lat="49.29047" lon="1.83322">
        <ele>77</ele>
        <time>2017-03-16T09:31:52Z</time>
      </trkpt>
      <trkpt lat="49.29082" lon="1.83351">
        <ele>77</ele>
        <time>2017-03-16T09:32:07Z</time>
      </trkpt>
      <trkpt lat="49.2912" lon="1.83346">
        <ele>78</ele>
        <time>2017-03-16T09:32:20Z</time>
      </trkpt>
      <trkpt lat="49.2916" lon="1.83344">
        <ele>78</ele>
        <time>2017-03-16T09:32:32Z</time>
      </trkpt>
      <trkpt lat="49.29202" lon="1.83342">
        <ele>80</ele>
        <time>2017-03-16T09:32:43Z</time>
      </trkpt>
      <trkpt lat="49.29241" lon="1.8334">
        <ele>82</ele>
        <time>2017-03-16T09:32:57Z</time>
      </trkpt>
      <trkpt lat="49.29283" lon="1.83334">
        <ele>84</ele>
        <time>2017-03-16T09:33:12Z</time>
      </trkpt>
      <trkpt lat="49.29321" lon="1.83317">
        <ele>86</ele>
        <time>2017-03-16T09:33:29Z</time>
      </trkpt>
      <trkpt lat="49.29359" lon="1.83293">
        <ele>88</ele>
        <time>2017-03-16T09:33:45Z</time>
      </trkpt>
      <trkpt lat="49.29394" lon="1.83264">
        <ele>89</ele>
        <time>2017-03-16T09:34:03Z</time>
      </trkpt>
      <trkpt lat="49.29429" lon="1.83232">
        <ele>91</ele>
        <time>2017-03-16T09:34:20Z</time>
      </trkpt>
      <trkpt lat="49.29461" lon="1.83194">
        <ele>92</ele>
        <time>2017-03-16T09:34:39Z</time>
      </trkpt>
      <trkpt lat="49.29492" lon="1.83157">
        <ele>93</ele>
        <time>2017-03-16T09:34:59Z</time>
      </trkpt>
      <trkpt lat="49.29524" lon="1.83117">
        <ele>96</ele>
        <time>2017-03-16T09:35:20Z</time>
      </trkpt>
      <trkpt lat="49.29546" lon="1.83065">
        <ele>99</ele>
        <time>2017-03-16T09:35:48Z</time>
      </trkpt>
      <trkpt lat="49.29574" lon="1.8302">
        <ele>103</ele>
        <time>2017-03-16T09:36:13Z</time>
      </trkpt>
      <trkpt lat="49.29605" lon="1.82983">
        <ele>106</ele>
        <time>2017-03-16T09:36:42Z</time>
      </trkpt>
      <trkpt lat="49.29646" lon="1.82956">
        <ele>108</ele>
        <time>2017-03-16T09:37:12Z</time>
      </trkpt>
      <trkpt lat="49.29685" lon="1.82913">
        <ele>111</ele>
        <time>2017-03-16T09:38:02Z</time>
      </trkpt>
      <trkpt lat="49.2974" lon="1.829">
        <ele>112</ele>
        <time>2017-03-16T09:38:55Z</time>
      </trkpt>
      <trkpt lat="49.29794" lon="1.82887">
        <ele>113</ele>
        <time>2017-03-16T09:39:18Z</time>
      </trkpt>
      <trkpt lat="49.29852" lon="1.82881">
        <ele>113</ele>
        <time>2017-03-16T09:39:41Z</time>
      </trkpt>
      <trkpt lat="49.29909" lon="1.82869">
        <ele>114</ele>
        <time>2017-03-16T09:40:27Z</time>
      </trkpt>
      <trkpt lat="49.29958" lon="1.82867">
        <ele>115</ele>
        <time>2017-03-16T09:41:06Z</time>
      </trkpt>
      <trkpt lat="49.30011" lon="1.82865">
        <ele>115</ele>
        <time>2017-03-16T09:41:29Z</time>
      </trkpt>
      <trkpt lat="49.30065" lon="1.8286">
        <ele>116</ele>
        <time>2017-03-16T09:41:48Z</time>
      </trkpt>
      <trkpt lat="49.3012" lon="1.82849">
        <ele>117</ele>
        <time>2017-03-16T09:42:05Z</time>
      </trkpt>
      <trkpt lat="49.3017" lon="1.82846">
        <ele>118</ele>
        <time>2017-03-16T09:42:23Z</time>
      </trkpt>
      <trkpt lat="49.30222" lon="1.82843">
        <ele>118</ele>
        <time>2017-03-16T09:42:46Z</time>
      </trkpt>
      <trkpt lat="49.30276" lon="1.82846">
        <ele>118</ele>
        <time>2017-03-16T09:43:06Z</time>
      </trkpt>
      <trkpt lat="49.30322" lon="1.82858">
        <ele>118</ele>
        <time>2017-03-16T09:43:23Z</time>
      </trkpt>
      <trkpt lat="49.30375" lon="1.8287">
        <ele>118</ele>
        <time>2017-03-16T09:43:41Z</time>
      </trkpt>
      <trkpt lat="49.30419" lon="1.82881">
        <ele>118</ele>
        <time>2017-03-16T09:43:58Z</time>
      </trkpt>
      <trkpt lat="49.30468" lon="1.82891">
        <ele>120</ele>
        <time>2017-03-16T09:44:19Z</time>
      </trkpt>
      <trkpt lat="49.30522" lon="1.82903">
        <ele>122</ele>
        <time>2017-03-16T09:44:39Z</time>
      </trkpt>
      <trkpt lat="49.30575" lon="1.8291">
        <ele>123</ele>
        <time>2017-03-16T09:45:02Z</time>
      </trkpt>
      <trkpt lat="49.30623" lon="1.82915">
        <ele>125</ele>
        <time>2017-03-16T09:45:20Z</time>
      </trkpt>
      <trkpt lat="49.30667" lon="1.82937">
        <ele>126</ele>
        <time>2017-03-16T09:45:39Z</time>
      </trkpt>
      <trkpt lat="49.30703" lon="1.82975">
        <ele>126</ele>
        <time>2017-03-16T09:46:03Z</time>
      </trkpt>
      <trkpt lat="49.30742" lon="1.83002">
        <ele>126</ele>
        <time>2017-03-16T09:47:59Z</time>
      </trkpt>
      <trkpt lat="49.30781" lon="1.83033">
        <ele>126</ele>
        <time>2017-03-16T09:48:14Z</time>
      </trkpt>
      <trkpt lat="49.30825" lon="1.83064">
        <ele>126</ele>
        <time>2017-03-16T09:48:28Z</time>
      </trkpt>
      <trkpt lat="49.3087" lon="1.83084">
        <ele>127</ele>
        <time>2017-03-16T09:48:42Z</time>
      </trkpt>
      <trkpt lat="49.30916" lon="1.83103">
        <ele>128</ele>
        <time>2017-03-16T09:48:58Z</time>
      </trkpt>
      <trkpt lat="49.30961" lon="1.83118">
        <ele>129</ele>
        <time>2017-03-16T09:49:16Z</time>
      </trkpt>
      <trkpt lat="49.31019" lon="1.83095">
        <ele>131</ele>
        <time>2017-03-16T09:49:40Z</time>
      </trkpt>
      <trkpt lat="49.31065" lon="1.83086">
        <ele>132</ele>
        <time>2017-03-16T09:50:00Z</time>
      </trkpt>
      <trkpt lat="49.31116" lon="1.83077">
        <ele>132</ele>
        <time>2017-03-16T09:50:20Z</time>
      </trkpt>
      <trkpt lat="49.3119" lon="1.83079">
        <ele>128</ele>
        <time>2017-03-16T09:51:16Z</time>
      </trkpt>
      <trkpt lat="49.31237" lon="1.831">
        <ele>124</ele>
        <time>2017-03-16T09:51:39Z</time>
      </trkpt>
      <trkpt lat="49.31284" lon="1.83133">
        <ele>120</ele>
        <time>2017-03-16T09:52:22Z</time>
      </trkpt>
      <trkpt lat="49.31323" lon="1.83163">
        <ele>118</ele>
        <time>2017-03-16T09:53:13Z</time>
      </trkpt>
      <trkpt lat="49.31367" lon="1.83191">
        <ele>115</ele>
        <time>2017-03-16T09:53:56Z</time>
      </trkpt>
      <trkpt lat="49.31427" lon="1.83203">
        <ele>117</ele>
        <time>2017-03-16T09:55:16Z</time>
      </trkpt>
      <trkpt lat="49.31464" lon="1.83198">
        <ele>120</ele>
        <time>2017-03-16T09:55:51Z</time>
      </trkpt>
      <trkpt lat="49.31507" lon="1.83185">
        <ele>122</ele>
        <time>2017-03-16T09:56:19Z</time>
      </trkpt>
      <trkpt lat="49.31557" lon="1.83178">
        <ele>124</ele>
        <time>2017-03-16T09:56:43Z</time>
      </trkpt>
      <trkpt lat="49.31596" lon="1.83188">
        <ele>126</ele>
        <time>2017-03-16T09:57:08Z</time>
      </trkpt>
      <trkpt lat="49.31642" lon="1.83224">
        <ele>128</ele>
        <time>2017-03-16T09:57:34Z</time>
      </trkpt>
      <trkpt lat="49.31681" lon="1.83249">
        <ele>129</ele>
        <time>2017-03-16T09:57:54Z</time>
      </trkpt>
      <trkpt lat="49.31727" lon="1.83259">
        <ele>129</ele>
        <time>2017-03-16T09:58:16Z</time>
      </trkpt>
      <trkpt lat="49.31785" lon="1.83282">
        <ele>128</ele>
        <time>2017-03-16T09:58:46Z</time>
      </trkpt>
      <trkpt lat="49.31828" lon="1.83327">
        <ele>128</ele>
        <time>2017-03-16T09:59:01Z</time>
      </trkpt>
      <trkpt lat="49.31865" lon="1.83369">
        <ele>126</ele>
        <time>2017-03-16T09:59:11Z</time>
      </trkpt>
      <trkpt lat="49.319" lon="1.83413">
        <ele>125</ele>
        <time>2017-03-16T09:59:22Z</time>
      </trkpt>
      <trkpt lat="49.31937" lon="1.83436">
        <ele>124</ele>
        <time>2017-03-16T09:59:33Z</time>
      </trkpt>
      <trkpt lat="49.31977" lon="1.83447">
        <ele>123</ele>
        <time>2017-03-16T09:59:46Z</time>
      </trkpt>
      <trkpt lat="49.32016" lon="1.83429">
        <ele>125</ele>
        <time>2017-03-16T10:00:01Z</time>
      </trkpt>
      <trkpt lat="49.32054" lon="1.83399">
        <ele>127</ele>
        <time>2017-03-16T10:00:17Z</time>
      </trkpt>
      <trkpt lat="49.32093" lon="1.83367">
        <ele>127</ele>
        <time>2017-03-16T10:00:33Z</time>
      </trkpt>
      <trkpt lat="49.32132" lon="1.8335">
        <ele>127</ele>
        <time>2017-03-16T10:00:48Z</time>
      </trkpt>
      <trkpt lat="49.32174" lon="1.83339">
        <ele>127</ele>
        <time>2017-03-16T10:01:03Z</time>
      </trkpt>
      <trkpt lat="49.32216" lon="1.83327">
        <ele>126</ele>
        <time>2017-03-16T10:01:15Z</time>
      </trkpt>
      <trkpt lat="49.32255" lon="1.83315">
        <ele>125</ele>
        <time>2017-03-16T10:01:26Z</time>
      </trkpt>
      <trkpt lat="49.323" lon="1.83301">
        <ele>125</ele>
        <time>2017-03-16T10:01:39Z</time>
      </trkpt>
      <trkpt lat="49.32339" lon="1.83302">
        <ele>125</ele>
        <time>2017-03-16T10:01:52Z</time>
      </trkpt>
      <trkpt lat="49.32372" lon="1.83337">
        <ele>127</ele>
        <time>2017-03-16T10:02:04Z</time>
      </trkpt>
      <trkpt lat="49.3241" lon="1.83336">
        <ele>128</ele>
        <time>2017-03-16T10:02:21Z</time>
      </trkpt>
      <trkpt lat="49.32445" lon="1.8331">
        <ele>128</ele>
        <time>2017-03-16T10:02:34Z</time>
      </trkpt>
      <trkpt lat="49.32485" lon="1.83283">
        <ele>128</ele>
        <time>2017-03-16T10:02:46Z</time>
      </trkpt>
      <trkpt lat="49.32521" lon="1.83258">
        <ele>127</ele>
        <time>2017-03-16T10:02:59Z</time>
      </trkpt>
      <trkpt lat="49.32558" lon="1.8323">
        <ele>126</ele>
        <time>2017-03-16T10:03:16Z</time>
      </trkpt>
      <trkpt lat="49.32595" lon="1.83205">
        <ele>124</ele>
        <time>2017-03-16T10:03:29Z</time>
      </trkpt>
      <trkpt lat="49.32634" lon="1.83177">
        <ele>124</ele>
        <time>2017-03-16T10:03:41Z</time>
      </trkpt>
      <trkpt lat="49.3267" lon="1.83151">
        <ele>125</ele>
        <time>2017-03-16T10:03:53Z</time>
      </trkpt>
      <trkpt lat="49.32709" lon="1.83122">
        <ele>126</ele>
        <time>2017-03-16T10:07:15Z</time>
      </trkpt>
      <trkpt lat="49.32752" lon="1.83096">
        <ele>126</ele>
        <time>2017-03-16T10:07:32Z</time>
      </trkpt>
      <trkpt lat="49.32786" lon="1.83056">
        <ele>126</ele>
        <time>2017-03-16T10:07:45Z</time>
      </trkpt>
      <trkpt lat="49.32813" lon="1.83005">
        <ele>125</ele>
        <time>2017-03-16T10:07:55Z</time>
      </trkpt>
      <trkpt lat="49.32839" lon="1.82957">
        <ele>126</ele>
        <time>2017-03-16T10:08:04Z</time>
      </trkpt>
      <trkpt lat="49.32867" lon="1.82909">
        <ele>128</ele>
        <time>2017-03-16T10:08:16Z</time>
      </trkpt>
      <trkpt lat="49.32894" lon="1.82858">
        <ele>131</ele>
        <time>2017-03-16T10:08:28Z</time>
      </trkpt>
      <trkpt lat="49.3292" lon="1.8281">
        <ele>133</ele>
        <time>2017-03-16T10:08:42Z</time>
      </trkpt>
      <trkpt lat="49.32946" lon="1.82761">
        <ele>135</ele>
        <time>2017-03-16T10:08:59Z</time>
      </trkpt>
      <trkpt lat="49.32975" lon="1.8272">
        <ele>136</ele>
        <time>2017-03-16T10:09:14Z</time>
      </trkpt>
      <trkpt lat="49.33007" lon="1.82681">
        <ele>136</ele>
        <time>2017-03-16T10:09:26Z</time>
      </trkpt>
      <trkpt lat="49.3304" lon="1.82641">
        <ele>136</ele>
        <time>2017-03-16T10:09:36Z</time>
      </trkpt>
      <trkpt lat="49.33074" lon="1.82603">
        <ele>135</ele>
        <time>2017-03-16T10:09:45Z</time>
      </trkpt>
      <trkpt lat="49.33109" lon="1.82561">
        <ele>134</ele>
        <time>2017-03-16T10:09:54Z</time>
      </trkpt>
      <trkpt lat="49.33145" lon="1.82521">
        <ele>133</ele>
        <time>2017-03-16T10:10:02Z</time>
      </trkpt>
      <trkpt lat="49.33181" lon="1.82479">
        <ele>131</ele>
        <time>2017-03-16T10:10:10Z</time>
      </trkpt>
      <trkpt lat="49.33212" lon="1.82441">
        <ele>130</ele>
        <time>2017-03-16T10:10:17Z</time>
      </trkpt>
      <trkpt lat="49.33246" lon="1.82399">
        <ele>128</ele>
        <time>2017-03-16T10:10:24Z</time>
      </trkpt>
      <trkpt lat="49.33275" lon="1.82347">
        <ele>126</ele>
        <time>2017-03-16T10:10:31Z</time>
      </trkpt>
      <trkpt lat="49.33297" lon="1.82292">
        <ele>122</ele>
        <time>2017-03-16T10:10:38Z</time>
      </trkpt>
      <trkpt lat="49.33308" lon="1.82228">
        <ele>119</ele>
        <time>2017-03-16T10:10:47Z</time>
      </trkpt>
      <trkpt lat="49.33304" lon="1.82168">
        <ele>116</ele>
        <time>2017-03-16T10:10:56Z</time>
      </trkpt>
      <trkpt lat="49.33293" lon="1.82105">
        <ele>111</ele>
        <time>2017-03-16T10:11:07Z</time>
      </trkpt>
      <trkpt lat="49.33268" lon="1.82053">
        <ele>108</ele>
        <time>2017-03-16T10:11:17Z</time>
      </trkpt>
      <trkpt lat="49.33302" lon="1.82015">
        <ele>105</ele>
        <time>2017-03-16T10:11:26Z</time>
      </trkpt>
      <trkpt lat="49.33322" lon="1.81953">
        <ele>99</ele>
        <time>2017-03-16T10:11:33Z</time>
      </trkpt>
      <trkpt lat="49.33334" lon="1.81894">
        <ele>92</ele>
        <time>2017-03-16T10:11:39Z</time>
      </trkpt>
      <trkpt lat="49.33356" lon="1.81857">
        <ele>92</ele>
        <time>2017-03-16T10:11:52Z</time>
      </trkpt>
      <trkpt lat="49.33396" lon="1.81866">
        <ele>93</ele>
        <time>2017-03-16T10:12:06Z</time>
      </trkpt>
      <trkpt lat="49.33433" lon="1.81894">
        <ele>92</ele>
        <time>2017-03-16T10:12:18Z</time>
      </trkpt>
      <trkpt lat="49.33469" lon="1.81927">
        <ele>92</ele>
        <time>2017-03-16T10:12:30Z</time>
      </trkpt>
      <trkpt lat="49.33502" lon="1.81961">
        <ele>92</ele>
        <time>2017-03-16T10:12:43Z</time>
      </trkpt>
      <trkpt lat="49.3352" lon="1.81935">
        <ele>92</ele>
        <time>2017-03-16T10:13:05Z</time>
      </trkpt>
      <trkpt lat="49.33515" lon="1.81918">
        <ele>93</ele>
        <time>2017-03-16T10:13:54Z</time>
      </trkpt>
      <trkpt lat="49.33518" lon="1.81943">
        <ele>92</ele>
        <time>2017-03-16T10:21:58Z</time>
      </trkpt>
      <trkpt lat="49.33485" lon="1.81939">
        <ele>92</ele>
        <time>2017-03-16T10:22:16Z</time>
      </trkpt>
      <trkpt lat="49.33452" lon="1.81907">
        <ele>92</ele>
        <time>2017-03-16T10:22:28Z</time>
      </trkpt>
      <trkpt lat="49.33416" lon="1.81875">
        <ele>93</ele>
        <time>2017-03-16T10:22:40Z</time>
      </trkpt>
      <trkpt lat="49.33413" lon="1.81838">
        <ele>94</ele>
        <time>2017-03-16T10:22:54Z</time>
      </trkpt>
      <trkpt lat="49.33441" lon="1.81791">
        <ele>96</ele>
        <time>2017-03-16T10:23:10Z</time>
      </trkpt>
      <trkpt lat="49.33463" lon="1.81734">
        <ele>98</ele>
        <time>2017-03-16T10:23:51Z</time>
      </trkpt>
      <trkpt lat="49.33476" lon="1.81674">
        <ele>100</ele>
        <time>2017-03-16T10:24:11Z</time>
      </trkpt>
      <trkpt lat="49.33483" lon="1.81611">
        <ele>103</ele>
        <time>2017-03-16T10:24:35Z</time>
      </trkpt>
      <trkpt lat="49.3349" lon="1.81554">
        <ele>105</ele>
        <time>2017-03-16T10:25:01Z</time>
      </trkpt>
      <trkpt lat="49.33502" lon="1.81499">
        <ele>108</ele>
        <time>2017-03-16T10:25:23Z</time>
      </trkpt>
      <trkpt lat="49.3351" lon="1.81438">
        <ele>111</ele>
        <time>2017-03-16T10:25:45Z</time>
      </trkpt>
      <trkpt lat="49.33522" lon="1.81378">
        <ele>114</ele>
        <time>2017-03-16T10:26:03Z</time>
      </trkpt>
      <trkpt lat="49.33535" lon="1.81318">
        <ele>117</ele>
        <time>2017-03-16T10:26:20Z</time>
      </trkpt>
      <trkpt lat="49.33547" lon="1.81257">
        <ele>119</ele>
        <time>2017-03-16T10:26:38Z</time>
      </trkpt>
      <trkpt lat="49.33553" lon="1.81197">
        <ele>121</ele>
        <time>2017-03-16T10:26:56Z</time>
      </trkpt>
      <trkpt lat="49.33575" lon="1.81147">
        <ele>124</ele>
        <time>2017-03-16T10:27:17Z</time>
      </trkpt>
      <trkpt lat="49.33613" lon="1.81123">
        <ele>126</ele>
        <time>2017-03-16T10:27:41Z</time>
      </trkpt>
      <trkpt lat="49.33648" lon="1.81092">
        <ele>129</ele>
        <time>2017-03-16T10:28:03Z</time>
      </trkpt>
      <trkpt lat="49.33686" lon="1.81064">
        <ele>133</ele>
        <time>2017-03-16T10:28:27Z</time>
      </trkpt>
      <trkpt lat="49.33724" lon="1.81047">
        <ele>134</ele>
        <time>2017-03-16T10:28:49Z</time>
      </trkpt>
      <trkpt lat="49.33761" lon="1.81031">
        <ele>136</ele>
        <time>2017-03-16T10:29:13Z</time>
      </trkpt>
      <trkpt lat="49.33798" lon="1.8101">
        <ele>139</ele>
        <time>2017-03-16T10:29:30Z</time>
      </trkpt>
      <trkpt lat="49.33826" lon="1.80971">
        <ele>141</ele>
        <time>2017-03-16T10:29:48Z</time>
      </trkpt>
      <trkpt lat="49.33853" lon="1.80929">
        <ele>141</ele>
        <time>2017-03-16T10:30:08Z</time>
      </trkpt>
      <trkpt lat="49.33881" lon="1.80887">
        <ele>141</ele>
        <time>2017-03-16T10:30:21Z</time>
      </trkpt>
      <trkpt lat="49.3391" lon="1.80842">
        <ele>141</ele>
        <time>2017-03-16T10:30:32Z</time>
      </trkpt>
      <trkpt lat="49.33936" lon="1.80797">
        <ele>140</ele>
        <time>2017-03-16T10:30:42Z</time>
      </trkpt>
      <trkpt lat="49.33966" lon="1.80758">
        <ele>140</ele>
        <time>2017-03-16T10:30:52Z</time>
      </trkpt>
      <trkpt lat="49.34001" lon="1.80726">
        <ele>139</ele>
        <time>2017-03-16T10:31:04Z</time>
      </trkpt>
      <trkpt lat="49.34032" lon="1.80691">
        <ele>138</ele>
        <time>2017-03-16T10:31:45Z</time>
      </trkpt>
      <trkpt lat="49.34067" lon="1.80655">
        <ele>137</ele>
        <time>2017-03-16T10:31:55Z</time>
      </trkpt>
      <trkpt lat="49.341" lon="1.80621">
        <ele>136</ele>
        <time>2017-03-16T10:32:03Z</time>
      </trkpt>
      <trkpt lat="49.34132" lon="1.80582">
        <ele>136</ele>
        <time>2017-03-16T10:32:11Z</time>
      </trkpt>
      <trkpt lat="49.34155" lon="1.80529">
        <ele>135</ele>
        <time>2017-03-16T10:32:19Z</time>
      </trkpt>
      <trkpt lat="49.34175" lon="1.80474">
        <ele>134</ele>
        <time>2017-03-16T10:32:27Z</time>
      </trkpt>
      <trkpt lat="49.34196" lon="1.80417">
        <ele>134</ele>
        <time>2017-03-16T10:32:35Z</time>
      </trkpt>
      <trkpt lat="49.34212" lon="1.80355">
        <ele>133</ele>
        <time>2017-03-16T10:32:43Z</time>
      </trkpt>
      <trkpt lat="49.34227" lon="1.80291">
        <ele>132</ele>
        <time>2017-03-16T10:32:51Z</time>
      </trkpt>
      <trkpt lat="49.34241" lon="1.8023">
        <ele>131</ele>
        <time>2017-03-16T10:32:58Z</time>
      </trkpt>
      <trkpt lat="49.34253" lon="1.80169">
        <ele>130</ele>
        <time>2017-03-16T10:33:05Z</time>
      </trkpt>
      <trkpt lat="49.34266" lon="1.80107">
        <ele>129</ele>
        <time>2017-03-16T10:33:12Z</time>
      </trkpt>
      <trkpt lat="49.34275" lon="1.80046">
        <ele>128</ele>
        <time>2017-03-16T10:33:21Z</time>
      </trkpt>
      <trkpt lat="49.34308" lon="1.80089">
        <ele>129</ele>
        <time>2017-03-16T10:33:35Z</time>
      </trkpt>
      <trkpt lat="49.34334" lon="1.80137">
        <ele>129</ele>
        <time>2017-03-16T10:33:46Z</time>
      </trkpt>
      <trkpt lat="49.34363" lon="1.80191">
        <ele>130</ele>
        <time>2017-03-16T10:33:58Z</time>
      </trkpt>
      <trkpt lat="49.34387" lon="1.80247">
        <ele>130</ele>
        <time>2017-03-16T10:34:09Z</time>
      </trkpt>
      <trkpt lat="49.34416" lon="1.80302">
        <ele>130</ele>
        <time>2017-03-16T10:34:18Z</time>
      </trkpt>
      <trkpt lat="49.3444" lon="1.80357">
        <ele>130</ele>
        <time>2017-03-16T10:34:27Z</time>
      </trkpt>
      <trkpt lat="49.34462" lon="1.80408">
        <ele>130</ele>
        <time>2017-03-16T10:34:36Z</time>
      </trkpt>
      <trkpt lat="49.34485" lon="1.80461">
        <ele>131</ele>
        <time>2017-03-16T10:34:46Z</time>
      </trkpt>
      <trkpt lat="49.34505" lon="1.80515">
        <ele>131</ele>
        <time>2017-03-16T10:34:56Z</time>
      </trkpt>
      <trkpt lat="49.34526" lon="1.80573">
        <ele>132</ele>
        <time>2017-03-16T10:35:07Z</time>
      </trkpt>
      <trkpt lat="49.34549" lon="1.80628">
        <ele>133</ele>
        <time>2017-03-16T10:35:18Z</time>
      </trkpt>
      <trkpt lat="49.3457" lon="1.80679">
        <ele>134</ele>
        <time>2017-03-16T10:35:29Z</time>
      </trkpt>
      <trkpt lat="49.34595" lon="1.80732">
        <ele>135</ele>
        <time>2017-03-16T10:35:40Z</time>
      </trkpt>
      <trkpt lat="49.34618" lon="1.80783">
        <ele>136</ele>
        <time>2017-03-16T10:35:51Z</time>
      </trkpt>
      <trkpt lat="49.34646" lon="1.80835">
        <ele>137</ele>
        <time>2017-03-16T10:36:02Z</time>
      </trkpt>
      <trkpt lat="49.34672" lon="1.80883">
        <ele>137</ele>
        <time>2017-03-16T10:36:12Z</time>
      </trkpt>
      <trkpt lat="49.347" lon="1.80934">
        <ele>137</ele>
        <time>2017-03-16T10:36:23Z</time>
      </trkpt>
      <trkpt lat="49.3473" lon="1.80963">
        <ele>138</ele>
        <time>2017-03-16T10:36:37Z</time>
      </trkpt>
      <trkpt lat="49.34765" lon="1.80932">
        <ele>137</ele>
        <time>2017-03-16T10:36:47Z</time>
      </trkpt>
      <trkpt lat="49.34802" lon="1.80902">
        <ele>137</ele>
        <time>2017-03-16T10:36:57Z</time>
      </trkpt>
      <trkpt lat="49.34839" lon="1.80874">
        <ele>136</ele>
        <time>2017-03-16T10:37:06Z</time>
      </trkpt>
      <trkpt lat="49.34877" lon="1.80842">
        <ele>136</ele>
        <time>2017-03-16T10:37:15Z</time>
      </trkpt>
      <trkpt lat="49.34916" lon="1.80811">
        <ele>136</ele>
        <time>2017-03-16T10:37:23Z</time>
      </trkpt>
      <trkpt lat="49.34949" lon="1.80781">
        <ele>137</ele>
        <time>2017-03-16T10:37:31Z</time>
      </trkpt>
      <trkpt lat="49.34985" lon="1.80751">
        <ele>137</ele>
        <time>2017-03-16T10:37:40Z</time>
      </trkpt>
      <trkpt lat="49.35022" lon="1.8072">
        <ele>137</ele>
        <time>2017-03-16T10:37:49Z</time>
      </trkpt>
      <trkpt lat="49.35059" lon="1.80688">
        <ele>138</ele>
        <time>2017-03-16T10:37:58Z</time>
      </trkpt>
      <trkpt lat="49.35094" lon="1.80659">
        <ele>137</ele>
        <time>2017-03-16T10:38:06Z</time>
      </trkpt>
      <trkpt lat="49.35131" lon="1.80627">
        <ele>137</ele>
        <time>2017-03-16T10:38:14Z</time>
      </trkpt>
      <trkpt lat="49.35168" lon="1.80596">
        <ele>136</ele>
        <time>2017-03-16T10:38:21Z</time>
      </trkpt>
      <trkpt lat="49.35209" lon="1.80562">
        <ele>134</ele>
        <time>2017-03-16T10:38:28Z</time>
      </trkpt>
      <trkpt lat="49.35246" lon="1.80531">
        <ele>133</ele>
        <time>2017-03-16T10:38:34Z</time>
      </trkpt>
      <trkpt lat="49.35286" lon="1.80512">
        <ele>131</ele>
        <time>2017-03-16T10:38:39Z</time>
      </trkpt>
      <trkpt lat="49.3533" lon="1.80513">
        <ele>131</ele>
        <time>2017-03-16T10:38:44Z</time>
      </trkpt>
      <trkpt lat="49.35369" lon="1.8052">
        <ele>133</ele>
        <time>2017-03-16T10:38:50Z</time>
      </trkpt>
      <trkpt lat="49.35408" lon="1.80536">
        <ele>134</ele>
        <time>2017-03-16T10:38:57Z</time>
      </trkpt>
      <trkpt lat="49.35444" lon="1.80555">
        <ele>135</ele>
        <time>2017-03-16T10:39:05Z</time>
      </trkpt>
      <trkpt lat="49.35481" lon="1.80574">
        <ele>135</ele>
        <time>2017-03-16T10:39:16Z</time>
      </trkpt>
      <trkpt lat="49.3552" lon="1.80591">
        <ele>136</ele>
        <time>2017-03-16T10:39:28Z</time>
      </trkpt>
      <trkpt lat="49.35562" lon="1.80601">
        <ele>137</ele>
        <time>2017-03-16T10:39:40Z</time>
      </trkpt>
      <trkpt lat="49.35605" lon="1.80603">
        <ele>138</ele>
        <time>2017-03-16T10:39:52Z</time>
      </trkpt>
      <trkpt lat="49.35645" lon="1.80603">
        <ele>139</ele>
        <time>2017-03-16T10:40:03Z</time>
      </trkpt>
      <trkpt lat="49.35686" lon="1.80603">
        <ele>139</ele>
        <time>2017-03-16T10:40:13Z</time>
      </trkpt>
      <trkpt lat="49.35726" lon="1.80604">
        <ele>139</ele>
        <time>2017-03-16T10:40:23Z</time>
      </trkpt>
      <trkpt lat="49.35766" lon="1.806">
        <ele>140</ele>
        <time>2017-03-16T10:40:33Z</time>
      </trkpt>
      <trkpt lat="49.35809" lon="1.80595">
        <ele>140</ele>
        <time>2017-03-16T10:40:44Z</time>
      </trkpt>
      <trkpt lat="49.35852" lon="1.80589">
        <ele>141</ele>
        <time>2017-03-16T10:40:56Z</time>
      </trkpt>
      <trkpt lat="49.35892" lon="1.80584">
        <ele>142</ele>
        <time>2017-03-16T10:41:07Z</time>
      </trkpt>
      <trkpt lat="49.35933" lon="1.80582">
        <ele>143</ele>
        <time>2017-03-16T10:41:18Z</time>
      </trkpt>
      <trkpt lat="49.35975" lon="1.80585">
        <ele>144</ele>
        <time>2017-03-16T10:41:30Z</time>
      </trkpt>
      <trkpt lat="49.36018" lon="1.8059">
        <ele>144</ele>
        <time>2017-03-16T10:41:41Z</time>
      </trkpt>
      <trkpt lat="49.36058" lon="1.80593">
        <ele>145</ele>
        <time>2017-03-16T10:41:52Z</time>
      </trkpt>
      <trkpt lat="49.36099" lon="1.80592">
        <ele>146</ele>
        <time>2017-03-16T10:42:03Z</time>
      </trkpt>
      <trkpt lat="49.36141" lon="1.80588">
        <ele>147</ele>
        <time>2017-03-16T10:42:15Z</time>
      </trkpt>
      <trkpt lat="49.36185" lon="1.80584">
        <ele>148</ele>
        <time>2017-03-16T10:42:28Z</time>
      </trkpt>
      <trkpt lat="49.36226" lon="1.8058">
        <ele>149</ele>
        <time>2017-03-16T10:42:41Z</time>
      </trkpt>
      <trkpt lat="49.36266" lon="1.80572">
        <ele>151</ele>
        <time>2017-03-16T10:42:54Z</time>
      </trkpt>
      <trkpt lat="49.36308" lon="1.80561">
        <ele>153</ele>
        <time>2017-03-16T10:43:08Z</time>
      </trkpt>
      <trkpt lat="49.36349" lon="1.80548">
        <ele>154</ele>
        <time>2017-03-16T10:43:22Z</time>
      </trkpt>
      <trkpt lat="49.3639" lon="1.80533">
        <ele>155</ele>
        <time>2017-03-16T10:43:38Z</time>
      </trkpt>
      <trkpt lat="49.36428" lon="1.80522">
        <ele>157</ele>
        <time>2017-03-16T10:43:54Z</time>
      </trkpt>
      <trkpt lat="49.36466" lon="1.80507">
        <ele>158</ele>
        <time>2017-03-16T10:44:11Z</time>
      </trkpt>
      <trkpt lat="49.36506" lon="1.80485">
        <ele>159</ele>
        <time>2017-03-16T10:44:28Z</time>
      </trkpt>
      <trkpt lat="49.36545" lon="1.80463">
        <ele>160</ele>
        <time>2017-03-16T10:44:44Z</time>
      </trkpt>
      <trkpt lat="49.36585" lon="1.80449">
        <ele>162</ele>
        <time>2017-03-16T10:45:00Z</time>
      </trkpt>
      <trkpt lat="49.36624" lon="1.8044">
        <ele>163</ele>
        <time>2017-03-16T10:45:19Z</time>
      </trkpt>
      <trkpt lat="49.36647" lon="1.80423">
        <ele>163</ele>
        <time>2017-03-16T10:50:58Z</time>
      </trkpt>
      <trkpt lat="49.36689" lon="1.8039">
        <ele>165</ele>
        <time>2017-03-16T10:51:10Z</time>
      </trkpt>
      <trkpt lat="49.36725" lon="1.8035">
        <ele>166</ele>
        <time>2017-03-16T10:51:22Z</time>
      </trkpt>
      <trkpt lat="49.36756" lon="1.80302">
        <ele>166</ele>
        <time>2017-03-16T10:51:34Z</time>
      </trkpt>
      <trkpt lat="49.36792" lon="1.80264">
        <ele>166</ele>
        <time>2017-03-16T10:51:46Z</time>
      </trkpt>
      <trkpt lat="49.3683" lon="1.80239">
        <ele>165</ele>
        <time>2017-03-16T10:51:59Z</time>
      </trkpt>
      <trkpt lat="49.36872" lon="1.80216">
        <ele>165</ele>
        <time>2017-03-16T10:52:10Z</time>
      </trkpt>
      <trkpt lat="49.36913" lon="1.80195">
        <ele>165</ele>
        <time>2017-03-16T10:52:19Z</time>
      </trkpt>
      <trkpt lat="49.36954" lon="1.80177">
        <ele>164</ele>
        <time>2017-03-16T10:52:27Z</time>
      </trkpt>
      <trkpt lat="49.36993" lon="1.80158">
        <ele>163</ele>
        <time>2017-03-16T10:52:35Z</time>
      </trkpt>
      <trkpt lat="49.37031" lon="1.80136">
        <ele>162</ele>
        <time>2017-03-16T10:52:43Z</time>
      </trkpt>
      <trkpt lat="49.37068" lon="1.80105">
        <ele>162</ele>
        <time>2017-03-16T10:52:51Z</time>
      </trkpt>
      <trkpt lat="49.37101" lon="1.8007">
        <ele>161</ele>
        <time>2017-03-16T10:53:01Z</time>
      </trkpt>
      <trkpt lat="49.37138" lon="1.8004">
        <ele>160</ele>
        <time>2017-03-16T10:53:13Z</time>
      </trkpt>
      <trkpt lat="49.37174" lon="1.80008">
        <ele>159</ele>
        <time>2017-03-16T10:53:23Z</time>
      </trkpt>
      <trkpt lat="49.37201" lon="1.79962">
        <ele>158</ele>
        <time>2017-03-16T10:53:30Z</time>
      </trkpt>
      <trkpt lat="49.37209" lon="1.79904">
        <ele>156</ele>
        <time>2017-03-16T10:53:38Z</time>
      </trkpt>
      <trkpt lat="49.37192" lon="1.79843">
        <ele>153</ele>
        <time>2017-03-16T10:53:45Z</time>
      </trkpt>
      <trkpt lat="49.3718" lon="1.79774">
        <ele>147</ele>
        <time>2017-03-16T10:53:51Z</time>
      </trkpt>
      <trkpt lat="49.37185" lon="1.79714">
        <ele>142</ele>
        <time>2017-03-16T10:53:57Z</time>
      </trkpt>
      <trkpt lat="49.37213" lon="1.79662">
        <ele>139</ele>
        <time>2017-03-16T10:54:03Z</time>
      </trkpt>
      <trkpt lat="49.37235" lon="1.79613">
        <ele>134</ele>
        <time>2017-03-16T10:54:08Z</time>
      </trkpt>
      <trkpt lat="49.37256" lon="1.79561">
        <ele>129</ele>
        <time>2017-03-16T10:54:13Z</time>
      </trkpt>
      <trkpt lat="49.37269" lon="1.79499">
        <ele>124</ele>
        <time>2017-03-16T10:54:19Z</time>
      </trkpt>
      <trkpt lat="49.37273" lon="1.79433">
        <ele>120</ele>
        <time>2017-03-16T10:54:25Z</time>
      </trkpt>
      <trkpt lat="49.37263" lon="1.79365">
        <ele>114</ele>
        <time>2017-03-16T10:54:33Z</time>
      </trkpt>
      <trkpt lat="49.37289" lon="1.79319">
        <ele>113</ele>
        <time>2017-03-16T10:54:42Z</time>
      </trkpt>
      <trkpt lat="49.37316" lon="1.79273">
        <ele>114</ele>
        <time>2017-03-16T10:54:54Z</time>
      </trkpt>
      <trkpt lat="49.37355" lon="1.79265">
        <ele>116</ele>
        <time>2017-03-16T10:55:09Z</time>
      </trkpt>
      <trkpt lat="49.37395" lon="1.79273">
        <ele>117</ele>
        <time>2017-03-16T10:55:22Z</time>
      </trkpt>
      <trkpt lat="49.37434" lon="1.7928">
        <ele>119</ele>
        <time>2017-03-16T10:55:35Z</time>
      </trkpt>
      <trkpt lat="49.37474" lon="1.7929">
        <ele>119</ele>
        <time>2017-03-16T10:55:52Z</time>
      </trkpt>
      <trkpt lat="49.37512" lon="1.79317">
        <ele>120</ele>
        <time>2017-03-16T10:56:12Z</time>
      </trkpt>
      <trkpt lat="49.37536" lon="1.79359">
        <ele>120</ele>
        <time>2017-03-16T10:56:22Z</time>
      </trkpt>
      <trkpt lat="49.37561" lon="1.7941">
        <ele>119</ele>
        <time>2017-03-16T10:56:38Z</time>
      </trkpt>
      <trkpt lat="49.37582" lon="1.79465">
        <ele>119</ele>
        <time>2017-03-16T10:56:53Z</time>
      </trkpt>
      <trkpt lat="49.37606" lon="1.79519">
        <ele>118</ele>
        <time>2017-03-16T10:57:07Z</time>
      </trkpt>
      <trkpt lat="49.37628" lon="1.79574">
        <ele>119</ele>
        <time>2017-03-16T10:57:23Z</time>
      </trkpt>
      <trkpt lat="49.3765" lon="1.79627">
        <ele>119</ele>
        <time>2017-03-16T10:57:38Z</time>
      </trkpt>
      <trkpt lat="49.37678" lon="1.79652">
        <ele>120</ele>
        <time>2017-03-16T10:57:55Z</time>
      </trkpt>
      <trkpt lat="49.37697" lon="1.79596">
        <ele>123</ele>
        <time>2017-03-16T10:58:11Z</time>
      </trkpt>
      <trkpt lat="49.37717" lon="1.79543">
        <ele>127</ele>
        <time>2017-03-16T10:58:30Z</time>
      </trkpt>
      <trkpt lat="49.37742" lon="1.79496">
        <ele>130</ele>
        <time>2017-03-16T10:58:51Z</time>
      </trkpt>
      <trkpt lat="49.3777" lon="1.79449">
        <ele>132</ele>
        <time>2017-03-16T10:59:15Z</time>
      </trkpt>
      <trkpt lat="49.37803" lon="1.79408">
        <ele>135</ele>
        <time>2017-03-16T10:59:40Z</time>
      </trkpt>
      <trkpt lat="49.37836" lon="1.79368">
        <ele>137</ele>
        <time>2017-03-16T11:00:07Z</time>
      </trkpt>
      <trkpt lat="49.37869" lon="1.79328">
        <ele>140</ele>
        <time>2017-03-16T11:00:31Z</time>
      </trkpt>
      <trkpt lat="49.37901" lon="1.79294">
        <ele>142</ele>
        <time>2017-03-16T11:00:49Z</time>
      </trkpt>
      <trkpt lat="49.37935" lon="1.79272">
        <ele>146</ele>
        <time>2017-03-16T11:01:08Z</time>
      </trkpt>
      <trkpt lat="49.37973" lon="1.79249">
        <ele>147</ele>
        <time>2017-03-16T11:01:30Z</time>
      </trkpt>
      <trkpt lat="49.38012" lon="1.79232">
        <ele>148</ele>
        <time>2017-03-16T11:01:52Z</time>
      </trkpt>
      <trkpt lat="49.3805" lon="1.79213">
        <ele>152</ele>
        <time>2017-03-16T11:02:21Z</time>
      </trkpt>
      <trkpt lat="49.38083" lon="1.7918">
        <ele>155</ele>
        <time>2017-03-16T11:02:39Z</time>
      </trkpt>
      <trkpt lat="49.38114" lon="1.79144">
        <ele>157</ele>
        <time>2017-03-16T11:02:58Z</time>
      </trkpt>
      <trkpt lat="49.38144" lon="1.79101">
        <ele>159</ele>
        <time>2017-03-16T11:03:17Z</time>
      </trkpt>
      <trkpt lat="49.3817" lon="1.79055">
        <ele>161</ele>
        <time>2017-03-16T11:03:34Z</time>
      </trkpt>
      <trkpt lat="49.38197" lon="1.79008">
        <ele>163</ele>
        <time>2017-03-16T11:03:52Z</time>
      </trkpt>
      <trkpt lat="49.38225" lon="1.78963">
        <ele>164</ele>
        <time>2017-03-16T11:04:10Z</time>
      </trkpt>
      <trkpt lat="49.38257" lon="1.78926">
        <ele>166</ele>
        <time>2017-03-16T11:04:27Z</time>
      </trkpt>
      <trkpt lat="49.38294" lon="1.78894">
        <ele>168</ele>
        <time>2017-03-16T11:04:43Z</time>
      </trkpt>
      <trkpt lat="49.38329" lon="1.78867">
        <ele>170</ele>
        <time>2017-03-16T11:04:58Z</time>
      </trkpt>
      <trkpt lat="49.38364" lon="1.78838">
        <ele>171</ele>
        <time>2017-03-16T11:05:14Z</time>
      </trkpt>
      <trkpt lat="49.38397" lon="1.78796">
        <ele>172</ele>
        <time>2017-03-16T11:05:30Z</time>
      </trkpt>
      <trkpt lat="49.38425" lon="1.78755">
        <ele>173</ele>
        <time>2017-03-16T11:05:45Z</time>
      </trkpt>
      <trkpt lat="49.38453" lon="1.78713">
        <ele>175</ele>
        <time>2017-03-16T11:06:00Z</time>
      </trkpt>
      <trkpt lat="49.38481" lon="1.78668">
        <ele>177</ele>
        <time>2017-03-16T11:06:15Z</time>
      </trkpt>
      <trkpt lat="49.3851" lon="1.78624">
        <ele>178</ele>
        <time>2017-03-16T11:06:28Z</time>
      </trkpt>
      <trkpt lat="49.38539" lon="1.78579">
        <ele>179</ele>
        <time>2017-03-16T11:06:41Z</time>
      </trkpt>
      <trkpt lat="49.3857" lon="1.78537">
        <ele>179</ele>
        <time>2017-03-16T11:06:54Z</time>
      </trkpt>
      <trkpt lat="49.38602" lon="1.78495">
        <ele>180</ele>
        <time>2017-03-16T11:07:07Z</time>
      </trkpt>
      <trkpt lat="49.38635" lon="1.78455">
        <ele>180</ele>
        <time>2017-03-16T11:07:18Z</time>
      </trkpt>
      <trkpt lat="49.38669" lon="1.78412">
        <ele>179</ele>
        <time>2017-03-16T11:07:27Z</time>
      </trkpt>
      <trkpt lat="49.38694" lon="1.78364">
        <ele>177</ele>
        <time>2017-03-16T11:07:34Z</time>
      </trkpt>
      <trkpt lat="49.38722" lon="1.78314">
        <ele>176</ele>
        <time>2017-03-16T11:07:43Z</time>
      </trkpt>
      <trkpt lat="49.38748" lon="1.78271">
        <ele>176</ele>
        <time>2017-03-16T11:07:54Z</time>
      </trkpt>
      <trkpt lat="49.38787" lon="1.78242">
        <ele>177</ele>
        <time>2017-03-16T11:08:06Z</time>
      </trkpt>
      <trkpt lat="49.38826" lon="1.78216">
        <ele>177</ele>
        <time>2017-03-16T11:08:17Z</time>
      </trkpt>
      <trkpt lat="49.3886" lon="1.78184">
        <ele>176</ele>
        <time>2017-03-16T11:08:28Z</time>
      </trkpt>
      <trkpt lat="49.38889" lon="1.78135">
        <ele>175</ele>
        <time>2017-03-16T11:08:38Z</time>
      </trkpt>
      <trkpt lat="49.38918" lon="1.78089">
        <ele>175</ele>
        <time>2017-03-16T11:08:46Z</time>
      </trkpt>
      <trkpt lat="49.38949" lon="1.78046">
        <ele>175</ele>
        <time>2017-03-16T11:08:55Z</time>
      </trkpt>
      <trkpt lat="49.38984" lon="1.78014">
        <ele>178</ele>
        <time>2017-03-16T11:09:05Z</time>
      </trkpt>
      <trkpt lat="49.39021" lon="1.77992">
        <ele>179</ele>
        <time>2017-03-16T11:09:16Z</time>
      </trkpt>
      <trkpt lat="49.39061" lon="1.7797">
        <ele>179</ele>
        <time>2017-03-16T11:09:27Z</time>
      </trkpt>
      <trkpt lat="49.39101" lon="1.77962">
        <ele>178</ele>
        <time>2017-03-16T11:09:37Z</time>
      </trkpt>
      <trkpt lat="49.39136" lon="1.77993">
        <ele>178</ele>
        <time>2017-03-16T11:09:47Z</time>
      </trkpt>
      <trkpt lat="49.39174" lon="1.78025">
        <ele>178</ele>
        <time>2017-03-16T11:09:58Z</time>
      </trkpt>
      <trkpt lat="49.39209" lon="1.78058">
        <ele>179</ele>
        <time>2017-03-16T11:10:10Z</time>
      </trkpt>
      <trkpt lat="49.39236" lon="1.78105">
        <ele>181</ele>
        <time>2017-03-16T11:10:25Z</time>
      </trkpt>
      <trkpt lat="49.39255" lon="1.7815">
        <ele>182</ele>
        <time>2017-03-16T11:12:45Z</time>
      </trkpt>
      <trkpt lat="49.39269" lon="1.78129">
        <ele>181</ele>
        <time>2017-03-16T12:54:29Z</time>
      </trkpt>
      <trkpt lat="49.39232" lon="1.78096">
        <ele>181</ele>
        <time>2017-03-16T13:03:09Z</time>
      </trkpt>
      <trkpt lat="49.39199" lon="1.78057">
        <ele>179</ele>
        <time>2017-03-16T13:03:23Z</time>
      </trkpt>
      <trkpt lat="49.39163" lon="1.78023">
        <ele>178</ele>
        <time>2017-03-16T13:03:35Z</time>
      </trkpt>
      <trkpt lat="49.39128" lon="1.7799">
        <ele>178</ele>
        <time>2017-03-16T13:03:46Z</time>
      </trkpt>
      <trkpt lat="49.39094" lon="1.77954">
        <ele>178</ele>
        <time>2017-03-16T13:03:58Z</time>
      </trkpt>
      <trkpt lat="49.39114" lon="1.77903">
        <ele>175</ele>
        <time>2017-03-16T13:04:09Z</time>
      </trkpt>
      <trkpt lat="49.39148" lon="1.77875">
        <ele>171</ele>
        <time>2017-03-16T13:04:18Z</time>
      </trkpt>
      <trkpt lat="49.39191" lon="1.77899">
        <ele>169</ele>
        <time>2017-03-16T13:04:26Z</time>
      </trkpt>
      <trkpt lat="49.39229" lon="1.77929">
        <ele>168</ele>
        <time>2017-03-16T13:04:33Z</time>
      </trkpt>
      <trkpt lat="49.39267" lon="1.77958">
        <ele>168</ele>
        <time>2017-03-16T13:04:41Z</time>
      </trkpt>
      <trkpt lat="49.39305" lon="1.77971">
        <ele>166</ele>
        <time>2017-03-16T13:04:48Z</time>
      </trkpt>
      <trkpt lat="49.39336" lon="1.77949">
        <ele>159</ele>
        <time>2017-03-16T13:05:01Z</time>
      </trkpt>
      <trkpt lat="49.39332" lon="1.77941">
        <ele>159</ele>
        <time>2017-03-16T13:05:49Z</time>
      </trkpt>
      <trkpt lat="49.39297" lon="1.77891">
        <ele>154</ele>
        <time>2017-03-16T13:05:59Z</time>
      </trkpt>
      <trkpt lat="49.39265" lon="1.77859">
        <ele>152</ele>
        <time>2017-03-16T13:06:07Z</time>
      </trkpt>
      <trkpt lat="49.3923" lon="1.77823">
        <ele>152</ele>
        <time>2017-03-16T13:06:16Z</time>
      </trkpt>
      <trkpt lat="49.39195" lon="1.77782">
        <ele>153</ele>
        <time>2017-03-16T13:06:24Z</time>
      </trkpt>
      <trkpt lat="49.39172" lon="1.77733">
        <ele>152</ele>
        <time>2017-03-16T13:06:31Z</time>
      </trkpt>
      <trkpt lat="49.3916" lon="1.77667">
        <ele>147</ele>
        <time>2017-03-16T13:07:04Z</time>
      </trkpt>
      <trkpt lat="49.39154" lon="1.77594">
        <ele>143</ele>
        <time>2017-03-16T13:07:11Z</time>
      </trkpt>
      <trkpt lat="49.3916" lon="1.77524">
        <ele>139</ele>
        <time>2017-03-16T13:07:18Z</time>
      </trkpt>
      <trkpt lat="49.39177" lon="1.77459">
        <ele>135</ele>
        <time>2017-03-16T13:07:25Z</time>
      </trkpt>
      <trkpt lat="49.39197" lon="1.77404">
        <ele>131</ele>
        <time>2017-03-16T13:07:30Z</time>
      </trkpt>
      <trkpt lat="49.39217" lon="1.77356">
        <ele>127</ele>
        <time>2017-03-16T13:07:35Z</time>
      </trkpt>
      <trkpt lat="49.39239" lon="1.77295">
        <ele>124</ele>
        <time>2017-03-16T13:07:42Z</time>
      </trkpt>
      <trkpt lat="49.39247" lon="1.77229">
        <ele>123</ele>
        <time>2017-03-16T13:07:49Z</time>
      </trkpt>
      <trkpt lat="49.39265" lon="1.77171">
        <ele>117</ele>
        <time>2017-03-16T13:07:57Z</time>
      </trkpt>
      <trkpt lat="49.393" lon="1.77191">
        <ele>114</ele>
        <time>2017-03-16T13:08:04Z</time>
      </trkpt>
      <trkpt lat="49.39314" lon="1.77252">
        <ele>114</ele>
        <time>2017-03-16T13:08:12Z</time>
      </trkpt>
      <trkpt lat="49.39325" lon="1.77318">
        <ele>111</ele>
        <time>2017-03-16T13:08:18Z</time>
      </trkpt>
      <trkpt lat="49.39349" lon="1.77365">
        <ele>106</ele>
        <time>2017-03-16T13:08:23Z</time>
      </trkpt>
      <trkpt lat="49.39392" lon="1.77367">
        <ele>103</ele>
        <time>2017-03-16T13:08:29Z</time>
      </trkpt>
      <trkpt lat="49.39409" lon="1.77347">
        <ele>102</ele>
        <time>2017-03-16T13:16:19Z</time>
      </trkpt>
      <trkpt lat="49.39424" lon="1.77289">
        <ele>101</ele>
        <time>2017-03-16T13:16:27Z</time>
      </trkpt>
      <trkpt lat="49.39426" lon="1.77227">
        <ele>100</ele>
        <time>2017-03-16T13:16:34Z</time>
      </trkpt>
      <trkpt lat="49.39407" lon="1.77166">
        <ele>99</ele>
        <time>2017-03-16T13:16:41Z</time>
      </trkpt>
      <trkpt lat="49.39388" lon="1.7711">
        <ele>98</ele>
        <time>2017-03-16T13:16:48Z</time>
      </trkpt>
      <trkpt lat="49.3937" lon="1.77056">
        <ele>97</ele>
        <time>2017-03-16T13:16:56Z</time>
      </trkpt>
      <trkpt lat="49.39351" lon="1.77004">
        <ele>98</ele>
        <time>2017-03-16T13:17:06Z</time>
      </trkpt>
      <trkpt lat="49.39358" lon="1.76973">
        <ele>99</ele>
        <time>2017-03-16T13:17:19Z</time>
      </trkpt>
      <trkpt lat="49.39397" lon="1.76998">
        <ele>100</ele>
        <time>2017-03-16T13:17:31Z</time>
      </trkpt>
      <trkpt lat="49.39434" lon="1.77023">
        <ele>101</ele>
        <time>2017-03-16T13:17:45Z</time>
      </trkpt>
      <trkpt lat="49.39472" lon="1.77046">
        <ele>103</ele>
        <time>2017-03-16T13:18:01Z</time>
      </trkpt>
      <trkpt lat="49.39509" lon="1.77071">
        <ele>106</ele>
        <time>2017-03-16T13:18:17Z</time>
      </trkpt>
      <trkpt lat="49.39546" lon="1.77096">
        <ele>109</ele>
        <time>2017-03-16T13:18:32Z</time>
      </trkpt>
      <trkpt lat="49.39585" lon="1.77121">
        <ele>110</ele>
        <time>2017-03-16T13:18:44Z</time>
      </trkpt>
      <trkpt lat="49.39621" lon="1.77142">
        <ele>107</ele>
        <time>2017-03-16T13:18:53Z</time>
      </trkpt>
      <trkpt lat="49.39656" lon="1.77118">
        <ele>108</ele>
        <time>2017-03-16T13:19:09Z</time>
      </trkpt>
      <trkpt lat="49.39688" lon="1.77083">
        <ele>113</ele>
        <time>2017-03-16T13:19:47Z</time>
      </trkpt>
      <trkpt lat="49.39716" lon="1.77029">
        <ele>120</ele>
        <time>2017-03-16T13:20:43Z</time>
      </trkpt>
      <trkpt lat="49.39743" lon="1.76983">
        <ele>126</ele>
        <time>2017-03-16T13:21:37Z</time>
      </trkpt>
      <trkpt lat="49.39774" lon="1.76944">
        <ele>132</ele>
        <time>2017-03-16T13:22:16Z</time>
      </trkpt>
      <trkpt lat="49.39804" lon="1.76904">
        <ele>137</ele>
        <time>2017-03-16T13:23:12Z</time>
      </trkpt>
      <trkpt lat="49.39836" lon="1.76866">
        <ele>142</ele>
        <time>2017-03-16T13:24:08Z</time>
      </trkpt>
      <trkpt lat="49.39875" lon="1.76828">
        <ele>148</ele>
        <time>2017-03-16T13:25:02Z</time>
      </trkpt>
      <trkpt lat="49.39914" lon="1.76778">
        <ele>155</ele>
        <time>2017-03-16T13:26:05Z</time>
      </trkpt>
      <trkpt lat="49.3995" lon="1.76727">
        <ele>161</ele>
        <time>2017-03-16T13:26:51Z</time>
      </trkpt>
      <trkpt lat="49.39985" lon="1.76676">
        <ele>166</ele>
        <time>2017-03-16T13:27:26Z</time>
      </trkpt>
      <trkpt lat="49.40019" lon="1.76633">
        <ele>170</ele>
        <time>2017-03-16T13:27:55Z</time>
      </trkpt>
      <trkpt lat="49.40055" lon="1.76604">
        <ele>173</ele>
        <time>2017-03-16T13:28:46Z</time>
      </trkpt>
      <trkpt lat="49.40091" lon="1.76579">
        <ele>175</ele>
        <time>2017-03-16T13:29:07Z</time>
      </trkpt>
      <trkpt lat="49.40126" lon="1.76551">
        <ele>176</ele>
        <time>2017-03-16T13:29:29Z</time>
      </trkpt>
      <trkpt lat="49.40162" lon="1.7652">
        <ele>178</ele>
        <time>2017-03-16T13:29:51Z</time>
      </trkpt>
      <trkpt lat="49.4019" lon="1.76478">
        <ele>180</ele>
        <time>2017-03-16T13:30:15Z</time>
      </trkpt>
      <trkpt lat="49.40214" lon="1.76427">
        <ele>181</ele>
        <time>2017-03-16T13:30:38Z</time>
      </trkpt>
      <trkpt lat="49.4024" lon="1.76378">
        <ele>183</ele>
        <time>2017-03-16T13:31:02Z</time>
      </trkpt>
      <trkpt lat="49.40265" lon="1.76331">
        <ele>184</ele>
        <time>2017-03-16T13:31:24Z</time>
      </trkpt>
      <trkpt lat="49.40291" lon="1.76284">
        <ele>185</ele>
        <time>2017-03-16T13:31:45Z</time>
      </trkpt>
      <trkpt lat="49.40316" lon="1.76237">
        <ele>185</ele>
        <time>2017-03-16T13:32:01Z</time>
      </trkpt>
      <trkpt lat="49.40343" lon="1.76185">
        <ele>185</ele>
        <time>2017-03-16T13:32:14Z</time>
      </trkpt>
      <trkpt lat="49.40372" lon="1.76151">
        <ele>186</ele>
        <time>2017-03-16T13:32:29Z</time>
      </trkpt>
      <trkpt lat="49.40399" lon="1.76206">
        <ele>187</ele>
        <time>2017-03-16T13:32:44Z</time>
      </trkpt>
      <trkpt lat="49.40422" lon="1.76258">
        <ele>188</ele>
        <time>2017-03-16T13:33:00Z</time>
      </trkpt>
      <trkpt lat="49.40444" lon="1.76311">
        <ele>187</ele>
        <time>2017-03-16T13:33:15Z</time>
      </trkpt>
      <trkpt lat="49.40468" lon="1.76363">
        <ele>187</ele>
        <time>2017-03-16T13:33:27Z</time>
      </trkpt>
      <trkpt lat="49.40492" lon="1.76416">
        <ele>186</ele>
        <time>2017-03-16T13:33:38Z</time>
      </trkpt>
      <trkpt lat="49.40516" lon="1.76468">
        <ele>184</ele>
        <time>2017-03-16T13:33:50Z</time>
      </trkpt>
      <trkpt lat="49.40537" lon="1.76519">
        <ele>182</ele>
        <time>2017-03-16T13:34:00Z</time>
      </trkpt>
      <trkpt lat="49.40563" lon="1.76564">
        <ele>179</ele>
        <time>2017-03-16T13:34:16Z</time>
      </trkpt>
      <trkpt lat="49.40587" lon="1.76619">
        <ele>176</ele>
        <time>2017-03-16T13:34:29Z</time>
      </trkpt>
      <trkpt lat="49.40624" lon="1.76649">
        <ele>172</ele>
        <time>2017-03-16T13:34:37Z</time>
      </trkpt>
      <trkpt lat="49.40661" lon="1.76629">
        <ele>172</ele>
        <time>2017-03-16T13:34:45Z</time>
      </trkpt>
      <trkpt lat="49.40696" lon="1.76605">
        <ele>173</ele>
        <time>2017-03-16T13:35:04Z</time>
      </trkpt>
      <trkpt lat="49.40728" lon="1.76565">
        <ele>177</ele>
        <time>2017-03-16T13:35:24Z</time>
      </trkpt>
      <trkpt lat="49.40762" lon="1.76527">
        <ele>178</ele>
        <time>2017-03-16T13:35:39Z</time>
      </trkpt>
      <trkpt lat="49.40794" lon="1.76486">
        <ele>179</ele>
        <time>2017-03-16T13:35:54Z</time>
      </trkpt>
      <trkpt lat="49.40826" lon="1.76445">
        <ele>181</ele>
        <time>2017-03-16T13:36:10Z</time>
      </trkpt>
      <trkpt lat="49.40854" lon="1.764">
        <ele>182</ele>
        <time>2017-03-16T13:36:26Z</time>
      </trkpt>
      <trkpt lat="49.40884" lon="1.76359">
        <ele>184</ele>
        <time>2017-03-16T13:36:42Z</time>
      </trkpt>
      <trkpt lat="49.40911" lon="1.76308">
        <ele>186</ele>
        <time>2017-03-16T13:36:59Z</time>
      </trkpt>
      <trkpt lat="49.4093" lon="1.76256">
        <ele>187</ele>
        <time>2017-03-16T13:37:16Z</time>
      </trkpt>
      <trkpt lat="49.40953" lon="1.76205">
        <ele>189</ele>
        <time>2017-03-16T13:37:38Z</time>
      </trkpt>
      <trkpt lat="49.40983" lon="1.76162">
        <ele>191</ele>
        <time>2017-03-16T13:37:57Z</time>
      </trkpt>
      <trkpt lat="49.41004" lon="1.76112">
        <ele>193</ele>
        <time>2017-03-16T13:38:11Z</time>
      </trkpt>
      <trkpt lat="49.40991" lon="1.76057">
        <ele>192</ele>
        <time>2017-03-16T13:38:23Z</time>
      </trkpt>
      <trkpt lat="49.40982" lon="1.75998">
        <ele>192</ele>
        <time>2017-03-16T13:38:34Z</time>
      </trkpt>
      <trkpt lat="49.40991" lon="1.75934">
        <ele>194</ele>
        <time>2017-03-16T13:38:46Z</time>
      </trkpt>
      <trkpt lat="49.40995" lon="1.75871">
        <ele>195</ele>
        <time>2017-03-16T13:38:57Z</time>
      </trkpt>
      <trkpt lat="49.40996" lon="1.75806">
        <ele>197</ele>
        <time>2017-03-16T13:39:08Z</time>
      </trkpt>
      <trkpt lat="49.40992" lon="1.75743">
        <ele>199</ele>
        <time>2017-03-16T13:39:19Z</time>
      </trkpt>
      <trkpt lat="49.40986" lon="1.7568">
        <ele>200</ele>
        <time>2017-03-16T13:39:31Z</time>
      </trkpt>
      <trkpt lat="49.40988" lon="1.75617">
        <ele>200</ele>
        <time>2017-03-16T13:39:46Z</time>
      </trkpt>
      <trkpt lat="49.40996" lon="1.75556">
        <ele>202</ele>
        <time>2017-03-16T13:40:01Z</time>
      </trkpt>
      <trkpt lat="49.41005" lon="1.75495">
        <ele>203</ele>
        <time>2017-03-16T13:40:16Z</time>
      </trkpt>
      <trkpt lat="49.41011" lon="1.75433">
        <ele>203</ele>
        <time>2017-03-16T13:40:31Z</time>
      </trkpt>
      <trkpt lat="49.41012" lon="1.75371">
        <ele>203</ele>
        <time>2017-03-16T13:40:48Z</time>
      </trkpt>
      <trkpt lat="49.41014" lon="1.75305">
        <ele>203</ele>
        <time>2017-03-16T13:41:03Z</time>
      </trkpt>
      <trkpt lat="49.41016" lon="1.75243">
        <ele>204</ele>
        <time>2017-03-16T13:41:22Z</time>
      </trkpt>
      <trkpt lat="49.41018" lon="1.75181">
        <ele>205</ele>
        <time>2017-03-16T13:41:42Z</time>
      </trkpt>
      <trkpt lat="49.41019" lon="1.7512">
        <ele>206</ele>
        <time>2017-03-16T13:41:57Z</time>
      </trkpt>
      <trkpt lat="49.41023" lon="1.75056">
        <ele>206</ele>
        <time>2017-03-16T13:42:10Z</time>
      </trkpt>
      <trkpt lat="49.41028" lon="1.74993">
        <ele>205</ele>
        <time>2017-03-16T13:42:22Z</time>
      </trkpt>
      <trkpt lat="49.41031" lon="1.74931">
        <ele>204</ele>
        <time>2017-03-16T13:42:34Z</time>
      </trkpt>
      <trkpt lat="49.4103" lon="1.74871">
        <ele>202</ele>
        <time>2017-03-16T13:42:45Z</time>
      </trkpt>
      <trkpt lat="49.41019" lon="1.74813">
        <ele>201</ele>
        <time>2017-03-16T13:42:57Z</time>
      </trkpt>
      <trkpt lat="49.40996" lon="1.74761">
        <ele>200</ele>
        <time>2017-03-16T13:43:08Z</time>
      </trkpt>
      <trkpt lat="49.40975" lon="1.74707">
        <ele>199</ele>
        <time>2017-03-16T13:43:19Z</time>
      </trkpt>
      <trkpt lat="49.40952" lon="1.74649">
        <ele>199</ele>
        <time>2017-03-16T13:43:28Z</time>
      </trkpt>
      <trkpt lat="49.40929" lon="1.74593">
        <ele>197</ele>
        <time>2017-03-16T13:43:38Z</time>
      </trkpt>
      <trkpt lat="49.40905" lon="1.74544">
        <ele>196</ele>
        <time>2017-03-16T13:43:49Z</time>
      </trkpt>
      <trkpt lat="49.40883" lon="1.74489">
        <ele>195</ele>
        <time>2017-03-16T13:44:01Z</time>
      </trkpt>
      <trkpt lat="49.40859" lon="1.74439">
        <ele>194</ele>
        <time>2017-03-16T13:44:09Z</time>
      </trkpt>
      <trkpt lat="49.40827" lon="1.74391">
        <ele>191</ele>
        <time>2017-03-16T13:44:19Z</time>
      </trkpt>
      <trkpt lat="49.40833" lon="1.7434">
        <ele>191</ele>
        <time>2017-03-16T13:44:34Z</time>
      </trkpt>
      <trkpt lat="49.40862" lon="1.74295">
        <ele>193</ele>
        <time>2017-03-16T13:44:58Z</time>
      </trkpt>
      <trkpt lat="49.40892" lon="1.74257">
        <ele>196</ele>
        <time>2017-03-16T13:45:28Z</time>
      </trkpt>
      <trkpt lat="49.40923" lon="1.74218">
        <ele>198</ele>
        <time>2017-03-16T13:45:59Z</time>
      </trkpt>
      <trkpt lat="49.40951" lon="1.74173">
        <ele>200</ele>
        <time>2017-03-16T13:46:22Z</time>
      </trkpt>
      <trkpt lat="49.4098" lon="1.74127">
        <ele>200</ele>
        <time>2017-03-16T13:46:43Z</time>
      </trkpt>
      <trkpt lat="49.41012" lon="1.74088">
        <ele>200</ele>
        <time>2017-03-16T13:47:02Z</time>
      </trkpt>
      <trkpt lat="49.41046" lon="1.74053">
        <ele>198</ele>
        <time>2017-03-16T13:47:17Z</time>
      </trkpt>
      <trkpt lat="49.41075" lon="1.74006">
        <ele>196</ele>
        <time>2017-03-16T13:47:32Z</time>
      </trkpt>
      <trkpt lat="49.41106" lon="1.73969">
        <ele>195</ele>
        <time>2017-03-16T13:47:45Z</time>
      </trkpt>
      <trkpt lat="49.41149" lon="1.73956">
        <ele>194</ele>
        <time>2017-03-16T13:47:57Z</time>
      </trkpt>
      <trkpt lat="49.41192" lon="1.73951">
        <ele>195</ele>
        <time>2017-03-16T13:48:10Z</time>
      </trkpt>
      <trkpt lat="49.41233" lon="1.73941">
        <ele>196</ele>
        <time>2017-03-16T13:48:25Z</time>
      </trkpt>
      <trkpt lat="49.41269" lon="1.73915">
        <ele>196</ele>
        <time>2017-03-16T13:48:41Z</time>
      </trkpt>
      <trkpt lat="49.41302" lon="1.73876">
        <ele>198</ele>
        <time>2017-03-16T13:48:58Z</time>
      </trkpt>
      <trkpt lat="49.4133" lon="1.73833">
        <ele>200</ele>
        <time>2017-03-16T13:49:18Z</time>
      </trkpt>
      <trkpt lat="49.41359" lon="1.73789">
        <ele>203</ele>
        <time>2017-03-16T13:49:41Z</time>
      </trkpt>
      <trkpt lat="49.41388" lon="1.73745">
        <ele>206</ele>
        <time>2017-03-16T13:50:05Z</time>
      </trkpt>
      <trkpt lat="49.41416" lon="1.737">
        <ele>207</ele>
        <time>2017-03-16T13:50:24Z</time>
      </trkpt>
      <trkpt lat="49.41446" lon="1.73658">
        <ele>209</ele>
        <time>2017-03-16T13:50:42Z</time>
      </trkpt>
      <trkpt lat="49.41474" lon="1.73612">
        <ele>209</ele>
        <time>2017-03-16T13:51:03Z</time>
      </trkpt>
      <trkpt lat="49.41504" lon="1.73563">
        <ele>208</ele>
        <time>2017-03-16T13:51:17Z</time>
      </trkpt>
      <trkpt lat="49.41533" lon="1.73517">
        <ele>205</ele>
        <time>2017-03-16T13:51:25Z</time>
      </trkpt>
      <trkpt lat="49.41567" lon="1.73476">
        <ele>201</ele>
        <time>2017-03-16T13:51:33Z</time>
      </trkpt>
      <trkpt lat="49.4161" lon="1.73448">
        <ele>196</ele>
        <time>2017-03-16T13:51:40Z</time>
      </trkpt>
      <trkpt lat="49.41649" lon="1.73428">
        <ele>192</ele>
        <time>2017-03-16T13:51:46Z</time>
      </trkpt>
      <trkpt lat="49.41691" lon="1.73433">
        <ele>190</ele>
        <time>2017-03-16T13:51:54Z</time>
      </trkpt>
      <trkpt lat="49.41675" lon="1.73391">
        <ele>186</ele>
        <time>2017-03-16T13:52:06Z</time>
      </trkpt>
      <trkpt lat="49.4165" lon="1.73346">
        <ele>182</ele>
        <time>2017-03-16T13:52:15Z</time>
      </trkpt>
      <trkpt lat="49.41628" lon="1.733">
        <ele>176</ele>
        <time>2017-03-16T13:52:24Z</time>
      </trkpt>
      <trkpt lat="49.4162" lon="1.73241">
        <ele>171</ele>
        <time>2017-03-16T13:52:33Z</time>
      </trkpt>
      <trkpt lat="49.4162" lon="1.73177">
        <ele>165</ele>
        <time>2017-03-16T13:52:41Z</time>
      </trkpt>
      <trkpt lat="49.4162" lon="1.73119">
        <ele>158</ele>
        <time>2017-03-16T13:52:50Z</time>
      </trkpt>
      <trkpt lat="49.41632" lon="1.73062">
        <ele>148</ele>
        <time>2017-03-16T13:53:00Z</time>
      </trkpt>
      <trkpt lat="49.41663" lon="1.73021">
        <ele>141</ele>
        <time>2017-03-16T13:53:11Z</time>
      </trkpt>
      <trkpt lat="49.41699" lon="1.72978">
        <ele>134</ele>
        <time>2017-03-16T13:53:20Z</time>
      </trkpt>
      <trkpt lat="49.41718" lon="1.72919">
        <ele>128</ele>
        <time>2017-03-16T13:53:27Z</time>
      </trkpt>
      <trkpt lat="49.41745" lon="1.7287">
        <ele>123</ele>
        <time>2017-03-16T13:53:35Z</time>
      </trkpt>
      <trkpt lat="49.41786" lon="1.72838">
        <ele>118</ele>
        <time>2017-03-16T13:53:42Z</time>
      </trkpt>
      <trkpt lat="49.41823" lon="1.72805">
        <ele>114</ele>
        <time>2017-03-16T13:53:48Z</time>
      </trkpt>
      <trkpt lat="49.41853" lon="1.72764">
        <ele>110</ele>
        <time>2017-03-16T13:53:53Z</time>
      </trkpt>
      <trkpt lat="49.41889" lon="1.72727">
        <ele>107</ele>
        <time>2017-03-16T13:53:59Z</time>
      </trkpt>
      <trkpt lat="49.41936" lon="1.72725">
        <ele>104</ele>
        <time>2017-03-16T13:54:05Z</time>
      </trkpt>
      <trkpt lat="49.41974" lon="1.72693">
        <ele>102</ele>
        <time>2017-03-16T13:54:11Z</time>
      </trkpt>
      <trkpt lat="49.41996" lon="1.72636">
        <ele>99</ele>
        <time>2017-03-16T13:54:17Z</time>
      </trkpt>
      <trkpt lat="49.42029" lon="1.72627">
        <ele>98</ele>
        <time>2017-03-16T13:55:01Z</time>
      </trkpt>
      <trkpt lat="49.42068" lon="1.72646">
        <ele>98</ele>
        <time>2017-03-16T13:55:20Z</time>
      </trkpt>
      <trkpt lat="49.42111" lon="1.72658">
        <ele>96</ele>
        <time>2017-03-16T13:55:30Z</time>
      </trkpt>
      <trkpt lat="49.42151" lon="1.72659">
        <ele>95</ele>
        <time>2017-03-16T13:55:37Z</time>
      </trkpt>
      <trkpt lat="49.4218" lon="1.72621">
        <ele>93</ele>
        <time>2017-03-16T13:55:44Z</time>
      </trkpt>
      <trkpt lat="49.42198" lon="1.72556">
        <ele>90</ele>
        <time>2017-03-16T13:55:51Z</time>
      </trkpt>
      <trkpt lat="49.42231" lon="1.72517">
        <ele>86</ele>
        <time>2017-03-16T13:55:58Z</time>
      </trkpt>
      <trkpt lat="49.42255" lon="1.72492">
        <ele>83</ele>
        <time>2017-03-16T13:56:08Z</time>
      </trkpt>
      <trkpt lat="49.42233" lon="1.72445">
        <ele>81</ele>
        <time>2017-03-16T13:56:23Z</time>
      </trkpt>
      <trkpt lat="49.42231" lon="1.72377">
        <ele>81</ele>
        <time>2017-03-16T13:56:36Z</time>
      </trkpt>
      <trkpt lat="49.42235" lon="1.72313">
        <ele>81</ele>
        <time>2017-03-16T13:56:47Z</time>
      </trkpt>
      <trkpt lat="49.42236" lon="1.72249">
        <ele>82</ele>
        <time>2017-03-16T13:56:58Z</time>
      </trkpt>
      <trkpt lat="49.42241" lon="1.72182">
        <ele>83</ele>
        <time>2017-03-16T13:57:09Z</time>
      </trkpt>
      <trkpt lat="49.42251" lon="1.72126">
        <ele>83</ele>
        <time>2017-03-16T13:57:18Z</time>
      </trkpt>
      <trkpt lat="49.42238" lon="1.72063">
        <ele>83</ele>
        <time>2017-03-16T13:57:29Z</time>
      </trkpt>
      <trkpt lat="49.42239" lon="1.72001">
        <ele>83</ele>
        <time>2017-03-16T13:57:41Z</time>
      </trkpt>
      <trkpt lat="49.42243" lon="1.71938">
        <ele>84</ele>
        <time>2017-03-16T13:57:53Z</time>
      </trkpt>
      <trkpt lat="49.42247" lon="1.71876">
        <ele>85</ele>
        <time>2017-03-16T13:58:06Z</time>
      </trkpt>
      <trkpt lat="49.42262" lon="1.71838">
        <ele>86</ele>
        <time>2017-03-16T13:58:22Z</time>
      </trkpt>
      <trkpt lat="49.423" lon="1.71857">
        <ele>85</ele>
        <time>2017-03-16T13:58:33Z</time>
      </trkpt>
      <trkpt lat="49.42345" lon="1.71868">
        <ele>84</ele>
        <time>2017-03-16T13:58:45Z</time>
      </trkpt>
      <trkpt lat="49.42365" lon="1.71829">
        <ele>84</ele>
        <time>2017-03-16T13:59:17Z</time>
      </trkpt>
      <trkpt lat="49.42383" lon="1.71796">
        <ele>84</ele>
        <time>2017-03-16T14:00:58Z</time>
      </trkpt>
      <trkpt lat="49.42367" lon="1.71843">
        <ele>84</ele>
        <time>2017-03-16T14:01:26Z</time>
      </trkpt>
      <trkpt lat="49.42366" lon="1.71808">
        <ele>84</ele>
        <time>2017-03-16T14:08:25Z</time>
      </trkpt>
      <trkpt lat="49.42352" lon="1.7175">
        <ele>86</ele>
        <time>2017-03-16T14:08:42Z</time>
      </trkpt>
      <trkpt lat="49.42316" lon="1.7172">
        <ele>87</ele>
        <time>2017-03-16T14:08:56Z</time>
      </trkpt>
      <trkpt lat="49.42278" lon="1.71715">
        <ele>88</ele>
        <time>2017-03-16T14:09:15Z</time>
      </trkpt>
      <trkpt lat="49.42239" lon="1.71691">
        <ele>89</ele>
        <time>2017-03-16T14:10:14Z</time>
      </trkpt>
      <trkpt lat="49.42241" lon="1.71625">
        <ele>91</ele>
        <time>2017-03-16T14:10:31Z</time>
      </trkpt>
      <trkpt lat="49.42244" lon="1.7156">
        <ele>93</ele>
        <time>2017-03-16T14:10:51Z</time>
      </trkpt>
      <trkpt lat="49.42249" lon="1.71497">
        <ele>96</ele>
        <time>2017-03-16T14:11:14Z</time>
      </trkpt>
      <trkpt lat="49.42251" lon="1.71435">
        <ele>99</ele>
        <time>2017-03-16T14:11:38Z</time>
      </trkpt>
      <trkpt lat="49.42257" lon="1.71374">
        <ele>103</ele>
        <time>2017-03-16T14:12:08Z</time>
      </trkpt>
      <trkpt lat="49.42261" lon="1.71311">
        <ele>107</ele>
        <time>2017-03-16T14:12:38Z</time>
      </trkpt>
      <trkpt lat="49.42283" lon="1.71254">
        <ele>106</ele>
        <time>2017-03-16T14:12:54Z</time>
      </trkpt>
      <trkpt lat="49.423" lon="1.71193">
        <ele>105</ele>
        <time>2017-03-16T14:13:04Z</time>
      </trkpt>
      <trkpt lat="49.42299" lon="1.71129">
        <ele>106</ele>
        <time>2017-03-16T14:13:15Z</time>
      </trkpt>
      <trkpt lat="49.42297" lon="1.71064">
        <ele>107</ele>
        <time>2017-03-16T14:13:28Z</time>
      </trkpt>
      <trkpt lat="49.4229" lon="1.71004">
        <ele>107</ele>
        <time>2017-03-16T14:13:41Z</time>
      </trkpt>
      <trkpt lat="49.42289" lon="1.7094">
        <ele>107</ele>
        <time>2017-03-16T14:13:56Z</time>
      </trkpt>
      <trkpt lat="49.42284" lon="1.70873">
        <ele>104</ele>
        <time>2017-03-16T14:14:05Z</time>
      </trkpt>
      <trkpt lat="49.42275" lon="1.7081">
        <ele>102</ele>
        <time>2017-03-16T14:14:12Z</time>
      </trkpt>
      <trkpt lat="49.42282" lon="1.7074">
        <ele>101</ele>
        <time>2017-03-16T14:14:19Z</time>
      </trkpt>
      <trkpt lat="49.42293" lon="1.70676">
        <ele>101</ele>
        <time>2017-03-16T14:14:26Z</time>
      </trkpt>
      <trkpt lat="49.42305" lon="1.70617">
        <ele>101</ele>
        <time>2017-03-16T14:14:34Z</time>
      </trkpt>
      <trkpt lat="49.42315" lon="1.70554">
        <ele>101</ele>
        <time>2017-03-16T14:14:43Z</time>
      </trkpt>
      <trkpt lat="49.42333" lon="1.70498">
        <ele>102</ele>
        <time>2017-03-16T14:14:53Z</time>
      </trkpt>
      <trkpt lat="49.42359" lon="1.70452">
        <ele>103</ele>
        <time>2017-03-16T14:15:02Z</time>
      </trkpt>
      <trkpt lat="49.42378" lon="1.70399">
        <ele>104</ele>
        <time>2017-03-16T14:15:11Z</time>
      </trkpt>
      <trkpt lat="49.42392" lon="1.70336">
        <ele>106</ele>
        <time>2017-03-16T14:15:21Z</time>
      </trkpt>
      <trkpt lat="49.42406" lon="1.70275">
        <ele>106</ele>
        <time>2017-03-16T14:15:31Z</time>
      </trkpt>
      <trkpt lat="49.42419" lon="1.70218">
        <ele>105</ele>
        <time>2017-03-16T14:15:42Z</time>
      </trkpt>
      <trkpt lat="49.42434" lon="1.70158">
        <ele>106</ele>
        <time>2017-03-16T14:15:56Z</time>
      </trkpt>
      <trkpt lat="49.4245" lon="1.70101">
        <ele>106</ele>
        <time>2017-03-16T14:16:09Z</time>
      </trkpt>
      <trkpt lat="49.42473" lon="1.70049">
        <ele>106</ele>
        <time>2017-03-16T14:16:23Z</time>
      </trkpt>
      <trkpt lat="49.42494" lon="1.69994">
        <ele>107</ele>
        <time>2017-03-16T14:16:37Z</time>
      </trkpt>
      <trkpt lat="49.42514" lon="1.69941">
        <ele>108</ele>
        <time>2017-03-16T14:16:55Z</time>
      </trkpt>
      <trkpt lat="49.42536" lon="1.69886">
        <ele>108</ele>
        <time>2017-03-16T14:17:14Z</time>
      </trkpt>
      <trkpt lat="49.42558" lon="1.6983">
        <ele>109</ele>
        <time>2017-03-16T14:17:31Z</time>
      </trkpt>
      <trkpt lat="49.42577" lon="1.69774">
        <ele>109</ele>
        <time>2017-03-16T14:17:50Z</time>
      </trkpt>
      <trkpt lat="49.42596" lon="1.6972">
        <ele>109</ele>
        <time>2017-03-16T14:18:07Z</time>
      </trkpt>
      <trkpt lat="49.42608" lon="1.6966">
        <ele>111</ele>
        <time>2017-03-16T14:18:27Z</time>
      </trkpt>
      <trkpt lat="49.42619" lon="1.69599">
        <ele>113</ele>
        <time>2017-03-16T14:18:48Z</time>
      </trkpt>
      <trkpt lat="49.42627" lon="1.69538">
        <ele>113</ele>
        <time>2017-03-16T14:19:11Z</time>
      </trkpt>
      <trkpt lat="49.4264" lon="1.69478">
        <ele>110</ele>
        <time>2017-03-16T14:19:32Z</time>
      </trkpt>
      <trkpt lat="49.42655" lon="1.6942">
        <ele>113</ele>
        <time>2017-03-16T14:22:33Z</time>
      </trkpt>
      <trkpt lat="49.42672" lon="1.69359">
        <ele>114</ele>
        <time>2017-03-16T14:23:12Z</time>
      </trkpt>
      <trkpt lat="49.42689" lon="1.693">
        <ele>114</ele>
        <time>2017-03-16T14:23:35Z</time>
      </trkpt>
      <trkpt lat="49.42707" lon="1.69247">
        <ele>115</ele>
        <time>2017-03-16T14:23:58Z</time>
      </trkpt>
      <trkpt lat="49.42722" lon="1.69192">
        <ele>115</ele>
        <time>2017-03-16T14:24:19Z</time>
      </trkpt>
      <trkpt lat="49.42728" lon="1.69128">
        <ele>115</ele>
        <time>2017-03-16T14:24:39Z</time>
      </trkpt>
      <trkpt lat="49.42733" lon="1.69067">
        <ele>116</ele>
        <time>2017-03-16T14:25:01Z</time>
      </trkpt>
      <trkpt lat="49.42736" lon="1.69007">
        <ele>117</ele>
        <time>2017-03-16T14:25:20Z</time>
      </trkpt>
      <trkpt lat="49.42753" lon="1.68952">
        <ele>119</ele>
        <time>2017-03-16T14:25:37Z</time>
      </trkpt>
      <trkpt lat="49.42776" lon="1.68893">
        <ele>122</ele>
        <time>2017-03-16T14:26:09Z</time>
      </trkpt>
      <trkpt lat="49.42798" lon="1.68837">
        <ele>126</ele>
        <time>2017-03-16T14:26:47Z</time>
      </trkpt>
      <trkpt lat="49.42813" lon="1.68778">
        <ele>129</ele>
        <time>2017-03-16T14:27:19Z</time>
      </trkpt>
      <trkpt lat="49.42822" lon="1.68712">
        <ele>130</ele>
        <time>2017-03-16T14:27:43Z</time>
      </trkpt>
      <trkpt lat="49.42807" lon="1.68666">
        <ele>127</ele>
        <time>2017-03-16T14:28:03Z</time>
      </trkpt>
      <trkpt lat="49.42807" lon="1.68603">
        <ele>128</ele>
        <time>2017-03-16T14:28:23Z</time>
      </trkpt>
      <trkpt lat="49.4281" lon="1.68536">
        <ele>130</ele>
        <time>2017-03-16T14:28:44Z</time>
      </trkpt>
      <trkpt lat="49.42815" lon="1.68471">
        <ele>129</ele>
        <time>2017-03-16T14:29:01Z</time>
      </trkpt>
      <trkpt lat="49.42826" lon="1.68408">
        <ele>130</ele>
        <time>2017-03-16T14:29:14Z</time>
      </trkpt>
      <trkpt lat="49.42845" lon="1.68351">
        <ele>132</ele>
        <time>2017-03-16T14:29:32Z</time>
      </trkpt>
      <trkpt lat="49.42869" lon="1.68295">
        <ele>132</ele>
        <time>2017-03-16T14:29:52Z</time>
      </trkpt>
      <trkpt lat="49.42893" lon="1.68239">
        <ele>132</ele>
        <time>2017-03-16T14:30:10Z</time>
      </trkpt>
      <trkpt lat="49.42919" lon="1.68183">
        <ele>131</ele>
        <time>2017-03-16T14:30:25Z</time>
      </trkpt>
      <trkpt lat="49.42946" lon="1.68134">
        <ele>129</ele>
        <time>2017-03-16T14:30:34Z</time>
      </trkpt>
      <trkpt lat="49.42985" lon="1.68094">
        <ele>129</ele>
        <time>2017-03-16T14:30:49Z</time>
      </trkpt>
      <trkpt lat="49.43017" lon="1.68055">
        <ele>132</ele>
        <time>2017-03-16T14:31:06Z</time>
      </trkpt>
      <trkpt lat="49.4305" lon="1.68016">
        <ele>132</ele>
        <time>2017-03-16T14:31:22Z</time>
      </trkpt>
      <trkpt lat="49.43085" lon="1.67978">
        <ele>135</ele>
        <time>2017-03-16T14:31:39Z</time>
      </trkpt>
      <trkpt lat="49.43126" lon="1.67951">
        <ele>133</ele>
        <time>2017-03-16T14:31:58Z</time>
      </trkpt>
      <trkpt lat="49.43174" lon="1.67963">
        <ele>140</ele>
        <time>2017-03-16T14:32:41Z</time>
      </trkpt>
      <trkpt lat="49.43239" lon="1.67986">
        <ele>146</ele>
        <time>2017-03-16T14:33:27Z</time>
      </trkpt>
      <trkpt lat="49.43279" lon="1.6802">
        <ele>146</ele>
        <time>2017-03-16T14:34:08Z</time>
      </trkpt>
      <trkpt lat="49.43323" lon="1.6806">
        <ele>153</ele>
        <time>2017-03-16T14:35:00Z</time>
      </trkpt>
      <trkpt lat="49.43352" lon="1.68102">
        <ele>154</ele>
        <time>2017-03-16T14:35:44Z</time>
      </trkpt>
      <trkpt lat="49.4338" lon="1.6815">
        <ele>159</ele>
        <time>2017-03-16T14:36:32Z</time>
      </trkpt>
      <trkpt lat="49.43409" lon="1.68201">
        <ele>163</ele>
        <time>2017-03-16T14:37:13Z</time>
      </trkpt>
      <trkpt lat="49.43431" lon="1.68251">
        <ele>167</ele>
        <time>2017-03-16T14:37:57Z</time>
      </trkpt>
      <trkpt lat="49.43451" lon="1.68293">
        <ele>167</ele>
        <time>2017-03-16T14:38:40Z</time>
      </trkpt>
      <trkpt lat="49.43488" lon="1.68328">
        <ele>174</ele>
        <time>2017-03-16T14:39:51Z</time>
      </trkpt>
      <trkpt lat="49.43536" lon="1.68361">
        <ele>177</ele>
        <time>2017-03-16T14:40:31Z</time>
      </trkpt>
      <trkpt lat="49.43576" lon="1.68402">
        <ele>184</ele>
        <time>2017-03-16T14:41:31Z</time>
      </trkpt>
      <trkpt lat="49.43627" lon="1.68433">
        <ele>184</ele>
        <time>2017-03-16T14:42:18Z</time>
      </trkpt>
      <trkpt lat="49.43677" lon="1.68433">
        <ele>189</ele>
        <time>2017-03-16T14:42:57Z</time>
      </trkpt>
      <trkpt lat="49.43729" lon="1.68452">
        <ele>195</ele>
        <time>2017-03-16T14:43:39Z</time>
      </trkpt>
      <trkpt lat="49.43782" lon="1.68466">
        <ele>198</ele>
        <time>2017-03-16T14:44:21Z</time>
      </trkpt>
      <trkpt lat="49.43826" lon="1.68483">
        <ele>200</ele>
        <time>2017-03-16T14:44:54Z</time>
      </trkpt>
      <trkpt lat="49.43861" lon="1.68467">
        <ele>203</ele>
        <time>2017-03-16T14:45:27Z</time>
      </trkpt>
      <trkpt lat="49.43881" lon="1.68417">
        <ele>206</ele>
        <time>2017-03-16T14:45:45Z</time>
      </trkpt>
      <trkpt lat="49.43905" lon="1.68362">
        <ele>208</ele>
        <time>2017-03-16T14:46:04Z</time>
      </trkpt>
      <trkpt lat="49.43927" lon="1.68306">
        <ele>210</ele>
        <time>2017-03-16T14:46:21Z</time>
      </trkpt>
      <trkpt lat="49.43946" lon="1.68252">
        <ele>210</ele>
        <time>2017-03-16T14:46:35Z</time>
      </trkpt>
      <trkpt lat="49.4396" lon="1.68192">
        <ele>211</ele>
        <time>2017-03-16T14:46:49Z</time>
      </trkpt>
      <trkpt lat="49.43976" lon="1.68133">
        <ele>211</ele>
        <time>2017-03-16T14:47:02Z</time>
      </trkpt>
      <trkpt lat="49.43999" lon="1.68075">
        <ele>210</ele>
        <time>2017-03-16T14:47:14Z</time>
      </trkpt>
      <trkpt lat="49.44016" lon="1.68016">
        <ele>211</ele>
        <time>2017-03-16T14:47:26Z</time>
      </trkpt>
      <trkpt lat="49.44017" lon="1.67952">
        <ele>210</ele>
        <time>2017-03-16T14:47:35Z</time>
      </trkpt>
      <trkpt lat="49.44018" lon="1.67885">
        <ele>209</ele>
        <time>2017-03-16T14:47:45Z</time>
      </trkpt>
      <trkpt lat="49.44041" lon="1.67852">
        <ele>209</ele>
        <time>2017-03-16T14:47:56Z</time>
      </trkpt>
      <trkpt lat="49.44083" lon="1.67864">
        <ele>209</ele>
        <time>2017-03-16T14:48:06Z</time>
      </trkpt>
      <trkpt lat="49.44128" lon="1.6788">
        <ele>209</ele>
        <time>2017-03-16T14:48:17Z</time>
      </trkpt>
      <trkpt lat="49.44167" lon="1.67903">
        <ele>209</ele>
        <time>2017-03-16T14:48:26Z</time>
      </trkpt>
      <trkpt lat="49.44206" lon="1.67918">
        <ele>209</ele>
        <time>2017-03-16T14:48:34Z</time>
      </trkpt>
      <trkpt lat="49.44244" lon="1.67934">
        <ele>210</ele>
        <time>2017-03-16T14:48:43Z</time>
      </trkpt>
      <trkpt lat="49.44288" lon="1.67943">
        <ele>211</ele>
        <time>2017-03-16T14:48:52Z</time>
      </trkpt>
      <trkpt lat="49.44328" lon="1.67959">
        <ele>212</ele>
        <time>2017-03-16T14:49:03Z</time>
      </trkpt>
      <trkpt lat="49.4437" lon="1.68004">
        <ele>214</ele>
        <time>2017-03-16T14:49:47Z</time>
      </trkpt>
      <trkpt lat="49.44397" lon="1.68053">
        <ele>215</ele>
        <time>2017-03-16T14:50:09Z</time>
      </trkpt>
      <trkpt lat="49.44429" lon="1.68104">
        <ele>215</ele>
        <time>2017-03-16T14:50:33Z</time>
      </trkpt>
      <trkpt lat="49.44453" lon="1.68167">
        <ele>216</ele>
        <time>2017-03-16T14:51:17Z</time>
      </trkpt>
      <trkpt lat="49.44472" lon="1.68233">
        <ele>216</ele>
        <time>2017-03-16T14:51:41Z</time>
      </trkpt>
      <trkpt lat="49.4449" lon="1.68288">
        <ele>217</ele>
        <time>2017-03-16T14:52:38Z</time>
      </trkpt>
      <trkpt lat="49.44503" lon="1.68351">
        <ele>217</ele>
        <time>2017-03-16T14:53:19Z</time>
      </trkpt>
      <trkpt lat="49.44519" lon="1.68419">
        <ele>218</ele>
        <time>2017-03-16T14:54:06Z</time>
      </trkpt>
      <trkpt lat="49.44546" lon="1.68464">
        <ele>218</ele>
        <time>2017-03-16T14:54:26Z</time>
      </trkpt>
      <trkpt lat="49.44572" lon="1.68512">
        <ele>218</ele>
        <time>2017-03-16T14:54:50Z</time>
      </trkpt>
      <trkpt lat="49.44602" lon="1.68564">
        <ele>218</ele>
        <time>2017-03-16T14:56:14Z</time>
      </trkpt>
      <trkpt lat="49.44629" lon="1.68614">
        <ele>218</ele>
        <time>2017-03-16T14:56:33Z</time>
      </trkpt>
      <trkpt lat="49.44651" lon="1.68665">
        <ele>219</ele>
        <time>2017-03-16T14:56:50Z</time>
      </trkpt>
      <trkpt lat="49.44669" lon="1.68717">
        <ele>219</ele>
        <time>2017-03-16T14:57:09Z</time>
      </trkpt>
      <trkpt lat="49.44685" lon="1.68774">
        <ele>218</ele>
        <time>2017-03-16T14:57:27Z</time>
      </trkpt>
      <trkpt lat="49.44701" lon="1.68831">
        <ele>218</ele>
        <time>2017-03-16T14:57:45Z</time>
      </trkpt>
      <trkpt lat="49.44718" lon="1.68888">
        <ele>217</ele>
        <time>2017-03-16T14:58:00Z</time>
      </trkpt>
      <trkpt lat="49.44735" lon="1.68947">
        <ele>215</ele>
        <time>2017-03-16T14:58:13Z</time>
      </trkpt>
      <trkpt lat="49.44751" lon="1.69006">
        <ele>212</ele>
        <time>2017-03-16T14:58:30Z</time>
      </trkpt>
      <trkpt lat="49.44795" lon="1.69018">
        <ele>210</ele>
        <time>2017-03-16T14:58:56Z</time>
      </trkpt>
      <trkpt lat="49.44833" lon="1.68999">
        <ele>210</ele>
        <time>2017-03-16T14:59:12Z</time>
      </trkpt>
      <trkpt lat="49.44873" lon="1.6897">
        <ele>209</ele>
        <time>2017-03-16T14:59:29Z</time>
      </trkpt>
      <trkpt lat="49.44901" lon="1.68921">
        <ele>208</ele>
        <time>2017-03-16T14:59:42Z</time>
      </trkpt>
      <trkpt lat="49.4493" lon="1.68876">
        <ele>207</ele>
        <time>2017-03-16T14:59:56Z</time>
      </trkpt>
      <trkpt lat="49.44961" lon="1.6883">
        <ele>207</ele>
        <time>2017-03-16T15:00:09Z</time>
      </trkpt>
      <trkpt lat="49.44992" lon="1.68785">
        <ele>207</ele>
        <time>2017-03-16T15:00:21Z</time>
      </trkpt>
      <trkpt lat="49.45025" lon="1.68737">
        <ele>207</ele>
        <time>2017-03-16T15:00:32Z</time>
      </trkpt>
      <trkpt lat="49.45055" lon="1.68697">
        <ele>209</ele>
        <time>2017-03-16T15:00:43Z</time>
      </trkpt>
      <trkpt lat="49.45091" lon="1.68684">
        <ele>209</ele>
        <time>2017-03-16T15:00:58Z</time>
      </trkpt>
      <trkpt lat="49.45136" lon="1.68693">
        <ele>208</ele>
        <time>2017-03-16T15:01:09Z</time>
      </trkpt>
      <trkpt lat="49.45179" lon="1.68707">
        <ele>207</ele>
        <time>2017-03-16T15:01:18Z</time>
      </trkpt>
      <trkpt lat="49.45215" lon="1.68737">
        <ele>205</ele>
        <time>2017-03-16T15:01:25Z</time>
      </trkpt>
      <trkpt lat="49.4525" lon="1.68773">
        <ele>201</ele>
        <time>2017-03-16T15:01:31Z</time>
      </trkpt>
      <trkpt lat="49.4529" lon="1.68807">
        <ele>195</ele>
        <time>2017-03-16T15:01:37Z</time>
      </trkpt>
      <trkpt lat="49.45334" lon="1.68793">
        <ele>189</ele>
        <time>2017-03-16T15:01:43Z</time>
      </trkpt>
      <trkpt lat="49.45364" lon="1.68746">
        <ele>186</ele>
        <time>2017-03-16T15:01:48Z</time>
      </trkpt>
      <trkpt lat="49.45385" lon="1.68681">
        <ele>184</ele>
        <time>2017-03-16T15:01:53Z</time>
      </trkpt>
      <trkpt lat="49.45397" lon="1.68613">
        <ele>180</ele>
        <time>2017-03-16T15:01:59Z</time>
      </trkpt>
      <trkpt lat="49.45409" lon="1.6862">
        <ele>176</ele>
        <time>2017-03-16T15:02:11Z</time>
      </trkpt>
      <trkpt lat="49.45414" lon="1.68695">
        <ele>171</ele>
        <time>2017-03-16T15:02:19Z</time>
      </trkpt>
      <trkpt lat="49.45409" lon="1.68764">
        <ele>169</ele>
        <time>2017-03-16T15:02:25Z</time>
      </trkpt>
      <trkpt lat="49.45397" lon="1.68826">
        <ele>168</ele>
        <time>2017-03-16T15:02:30Z</time>
      </trkpt>
      <trkpt lat="49.45381" lon="1.68882">
        <ele>165</ele>
        <time>2017-03-16T15:02:35Z</time>
      </trkpt>
      <trkpt lat="49.45405" lon="1.68916">
        <ele>160</ele>
        <time>2017-03-16T15:02:42Z</time>
      </trkpt>
      <trkpt lat="49.45451" lon="1.68907">
        <ele>158</ele>
        <time>2017-03-16T15:02:48Z</time>
      </trkpt>
      <trkpt lat="49.45489" lon="1.68924">
        <ele>156</ele>
        <time>2017-03-16T15:02:53Z</time>
      </trkpt>
      <trkpt lat="49.45526" lon="1.68955">
        <ele>154</ele>
        <time>2017-03-16T15:02:58Z</time>
      </trkpt>
      <trkpt lat="49.45564" lon="1.68988">
        <ele>151</ele>
        <time>2017-03-16T15:03:03Z</time>
      </trkpt>
      <trkpt lat="49.45598" lon="1.69032">
        <ele>149</ele>
        <time>2017-03-16T15:03:08Z</time>
      </trkpt>
      <trkpt lat="49.45626" lon="1.69085">
        <ele>145</ele>
        <time>2017-03-16T15:03:13Z</time>
      </trkpt>
      <trkpt lat="49.45655" lon="1.69137">
        <ele>144</ele>
        <time>2017-03-16T15:03:18Z</time>
      </trkpt>
      <trkpt lat="49.45679" lon="1.69186">
        <ele>143</ele>
        <time>2017-03-16T15:03:23Z</time>
      </trkpt>
      <trkpt lat="49.45706" lon="1.69234">
        <ele>144</ele>
        <time>2017-03-16T15:03:30Z</time>
      </trkpt>
      <trkpt lat="49.45731" lon="1.69279">
        <ele>146</ele>
        <time>2017-03-16T15:03:40Z</time>
      </trkpt>
      <trkpt lat="49.45756" lon="1.69329">
        <ele>149</ele>
        <time>2017-03-16T15:03:51Z</time>
      </trkpt>
      <trkpt lat="49.45773" lon="1.69385">
        <ele>150</ele>
        <time>2017-03-16T15:04:03Z</time>
      </trkpt>
      <trkpt lat="49.45787" lon="1.69443">
        <ele>150</ele>
        <time>2017-03-16T15:04:17Z</time>
      </trkpt>
      <trkpt lat="49.45809" lon="1.69492">
        <ele>151</ele>
        <time>2017-03-16T15:04:31Z</time>
      </trkpt>
      <trkpt lat="49.45836" lon="1.6954">
        <ele>152</ele>
        <time>2017-03-16T15:04:43Z</time>
      </trkpt>
      <trkpt lat="49.45861" lon="1.69594">
        <ele>152</ele>
        <time>2017-03-16T15:04:55Z</time>
      </trkpt>
      <trkpt lat="49.45882" lon="1.69646">
        <ele>152</ele>
        <time>2017-03-16T15:05:03Z</time>
      </trkpt>
      <trkpt lat="49.45906" lon="1.69705">
        <ele>152</ele>
        <time>2017-03-16T15:05:11Z</time>
      </trkpt>
      <trkpt lat="49.45926" lon="1.6976">
        <ele>151</ele>
        <time>2017-03-16T15:05:20Z</time>
      </trkpt>
      <trkpt lat="49.45947" lon="1.69809">
        <ele>151</ele>
        <time>2017-03-16T15:05:31Z</time>
      </trkpt>
      <trkpt lat="49.45973" lon="1.69855">
        <ele>149</ele>
        <time>2017-03-16T15:05:43Z</time>
      </trkpt>
      <trkpt lat="49.46015" lon="1.69841">
        <ele>146</ele>
        <time>2017-03-16T15:05:52Z</time>
      </trkpt>
      <trkpt lat="49.46053" lon="1.69813">
        <ele>143</ele>
        <time>2017-03-16T15:05:59Z</time>
      </trkpt>
      <trkpt lat="49.46087" lon="1.69774">
        <ele>141</ele>
        <time>2017-03-16T15:06:05Z</time>
      </trkpt>
      <trkpt lat="49.46131" lon="1.69738">
        <ele>135</ele>
        <time>2017-03-16T15:06:11Z</time>
      </trkpt>
      <trkpt lat="49.46168" lon="1.69719">
        <ele>133</ele>
        <time>2017-03-16T15:06:15Z</time>
      </trkpt>
      <trkpt lat="49.46212" lon="1.69684">
        <ele>135</ele>
        <time>2017-03-16T15:06:20Z</time>
      </trkpt>
      <trkpt lat="49.46244" lon="1.69647">
        <ele>138</ele>
        <time>2017-03-16T15:06:25Z</time>
      </trkpt>
      <trkpt lat="49.46277" lon="1.69609">
        <ele>140</ele>
        <time>2017-03-16T15:06:33Z</time>
      </trkpt>
      <trkpt lat="49.46312" lon="1.69579">
        <ele>137</ele>
        <time>2017-03-16T15:06:45Z</time>
      </trkpt>
      <trkpt lat="49.4634" lon="1.69536">
        <ele>133</ele>
        <time>2017-03-16T15:06:53Z</time>
      </trkpt>
      <trkpt lat="49.46344" lon="1.69477">
        <ele>132</ele>
        <time>2017-03-16T15:06:59Z</time>
      </trkpt>
      <trkpt lat="49.4633" lon="1.69417">
        <ele>133</ele>
        <time>2017-03-16T15:07:07Z</time>
      </trkpt>
      <trkpt lat="49.46341" lon="1.69359">
        <ele>130</ele>
        <time>2017-03-16T15:07:18Z</time>
      </trkpt>
      <trkpt lat="49.46334" lon="1.69294">
        <ele>129</ele>
        <time>2017-03-16T15:07:27Z</time>
      </trkpt>
      <trkpt lat="49.46318" lon="1.69233">
        <ele>129</ele>
        <time>2017-03-16T15:07:36Z</time>
      </trkpt>
      <trkpt lat="49.46323" lon="1.69173">
        <ele>124</ele>
        <time>2017-03-16T15:07:44Z</time>
      </trkpt>
      <trkpt lat="49.4636" lon="1.69132">
        <ele>123</ele>
        <time>2017-03-16T15:07:50Z</time>
      </trkpt>
      <trkpt lat="49.464" lon="1.69137">
        <ele>123</ele>
        <time>2017-03-16T15:07:55Z</time>
      </trkpt>
      <trkpt lat="49.46447" lon="1.69161">
        <ele>121</ele>
        <time>2017-03-16T15:08:01Z</time>
      </trkpt>
      <trkpt lat="49.46488" lon="1.69167">
        <ele>119</ele>
        <time>2017-03-16T15:08:06Z</time>
      </trkpt>
      <trkpt lat="49.46532" lon="1.69153">
        <ele>117</ele>
        <time>2017-03-16T15:08:11Z</time>
      </trkpt>
      <trkpt lat="49.46577" lon="1.69174">
        <ele>114</ele>
        <time>2017-03-16T15:08:16Z</time>
      </trkpt>
      <trkpt lat="49.46614" lon="1.69209">
        <ele>115</ele>
        <time>2017-03-16T15:08:21Z</time>
      </trkpt>
      <trkpt lat="49.46632" lon="1.69275">
        <ele>114</ele>
        <time>2017-03-16T15:08:27Z</time>
      </trkpt>
      <trkpt lat="49.46664" lon="1.69323">
        <ele>114</ele>
        <time>2017-03-16T15:08:33Z</time>
      </trkpt>
      <trkpt lat="49.46696" lon="1.69361">
        <ele>114</ele>
        <time>2017-03-16T15:08:39Z</time>
      </trkpt>
      <trkpt lat="49.46728" lon="1.69398">
        <ele>116</ele>
        <time>2017-03-16T15:08:46Z</time>
      </trkpt>
      <trkpt lat="49.46768" lon="1.69425">
        <ele>118</ele>
        <time>2017-03-16T15:08:55Z</time>
      </trkpt>
      <trkpt lat="49.46806" lon="1.69437">
        <ele>120</ele>
        <time>2017-03-16T15:09:05Z</time>
      </trkpt>
      <trkpt lat="49.46847" lon="1.69448">
        <ele>122</ele>
        <time>2017-03-16T15:09:20Z</time>
      </trkpt>
      <trkpt lat="49.46888" lon="1.69455">
        <ele>124</ele>
        <time>2017-03-16T15:09:38Z</time>
      </trkpt>
      <trkpt lat="49.46928" lon="1.69448">
        <ele>126</ele>
        <time>2017-03-16T15:09:55Z</time>
      </trkpt>
      <trkpt lat="49.46951" lon="1.69484">
        <ele>126</ele>
        <time>2017-03-16T15:10:11Z</time>
      </trkpt>
      <trkpt lat="49.46957" lon="1.69551">
        <ele>126</ele>
        <time>2017-03-16T15:10:23Z</time>
      </trkpt>
      <trkpt lat="49.46966" lon="1.69615">
        <ele>126</ele>
        <time>2017-03-16T15:10:34Z</time>
      </trkpt>
      <trkpt lat="49.46981" lon="1.69676">
        <ele>126</ele>
        <time>2017-03-16T15:10:45Z</time>
      </trkpt>
      <trkpt lat="49.46998" lon="1.69732">
        <ele>126</ele>
        <time>2017-03-16T15:10:55Z</time>
      </trkpt>
      <trkpt lat="49.47018" lon="1.69789">
        <ele>126</ele>
        <time>2017-03-16T15:11:04Z</time>
      </trkpt>
      <trkpt lat="49.4704" lon="1.69847">
        <ele>126</ele>
        <time>2017-03-16T15:11:13Z</time>
      </trkpt>
      <trkpt lat="49.47064" lon="1.699">
        <ele>126</ele>
        <time>2017-03-16T15:11:21Z</time>
      </trkpt>
      <trkpt lat="49.4709" lon="1.6995">
        <ele>126</ele>
        <time>2017-03-16T15:11:28Z</time>
      </trkpt>
      <trkpt lat="49.47115" lon="1.70001">
        <ele>124</ele>
        <time>2017-03-16T15:11:34Z</time>
      </trkpt>
      <trkpt lat="49.4714" lon="1.70058">
        <ele>124</ele>
        <time>2017-03-16T15:11:40Z</time>
      </trkpt>
      <trkpt lat="49.47163" lon="1.70121">
        <ele>122</ele>
        <time>2017-03-16T15:11:46Z</time>
      </trkpt>
      <trkpt lat="49.47186" lon="1.7017">
        <ele>121</ele>
        <time>2017-03-16T15:11:51Z</time>
      </trkpt>
      <trkpt lat="49.47212" lon="1.70227">
        <ele>119</ele>
        <time>2017-03-16T15:11:57Z</time>
      </trkpt>
      <trkpt lat="49.47231" lon="1.70286">
        <ele>118</ele>
        <time>2017-03-16T15:12:03Z</time>
      </trkpt>
      <trkpt lat="49.47245" lon="1.70347">
        <ele>117</ele>
        <time>2017-03-16T15:12:09Z</time>
      </trkpt>
      <trkpt lat="49.47259" lon="1.70415">
        <ele>116</ele>
        <time>2017-03-16T15:12:15Z</time>
      </trkpt>
      <trkpt lat="49.47269" lon="1.70476">
        <ele>116</ele>
        <time>2017-03-16T15:12:21Z</time>
      </trkpt>
      <trkpt lat="49.47284" lon="1.70537">
        <ele>117</ele>
        <time>2017-03-16T15:12:28Z</time>
      </trkpt>
      <trkpt lat="49.47304" lon="1.70597">
        <ele>116</ele>
        <time>2017-03-16T15:12:35Z</time>
      </trkpt>
      <trkpt lat="49.47319" lon="1.7066">
        <ele>113</ele>
        <time>2017-03-16T15:12:41Z</time>
      </trkpt>
      <trkpt lat="49.47332" lon="1.70719">
        <ele>110</ele>
        <time>2017-03-16T15:12:46Z</time>
      </trkpt>
      <trkpt lat="49.47344" lon="1.7078">
        <ele>109</ele>
        <time>2017-03-16T15:12:51Z</time>
      </trkpt>
      <trkpt lat="49.47358" lon="1.70848">
        <ele>107</ele>
        <time>2017-03-16T15:12:57Z</time>
      </trkpt>
      <trkpt lat="49.47373" lon="1.70907">
        <ele>107</ele>
        <time>2017-03-16T15:13:03Z</time>
      </trkpt>
      <trkpt lat="49.47395" lon="1.70964">
        <ele>108</ele>
        <time>2017-03-16T15:13:09Z</time>
      </trkpt>
      <trkpt lat="49.47417" lon="1.71018">
        <ele>109</ele>
        <time>2017-03-16T15:13:15Z</time>
      </trkpt>
      <trkpt lat="49.47442" lon="1.71072">
        <ele>110</ele>
        <time>2017-03-16T15:13:22Z</time>
      </trkpt>
      <trkpt lat="49.47466" lon="1.71121">
        <ele>109</ele>
        <time>2017-03-16T15:13:28Z</time>
      </trkpt>
      <trkpt lat="49.47489" lon="1.71174">
        <ele>108</ele>
        <time>2017-03-16T15:13:35Z</time>
      </trkpt>
      <trkpt lat="49.47512" lon="1.71231">
        <ele>107</ele>
        <time>2017-03-16T15:13:42Z</time>
      </trkpt>
      <trkpt lat="49.47537" lon="1.7128">
        <ele>107</ele>
        <time>2017-03-16T15:13:48Z</time>
      </trkpt>
      <trkpt lat="49.47567" lon="1.71318">
        <ele>107</ele>
        <time>2017-03-16T15:13:54Z</time>
      </trkpt>
      <trkpt lat="49.47603" lon="1.71359">
        <ele>106</ele>
        <time>2017-03-16T15:14:01Z</time>
      </trkpt>
      <trkpt lat="49.4764" lon="1.71398">
        <ele>106</ele>
        <time>2017-03-16T15:14:08Z</time>
      </trkpt>
      <trkpt lat="49.47677" lon="1.71436">
        <ele>107</ele>
        <time>2017-03-16T15:14:17Z</time>
      </trkpt>
      <trkpt lat="49.47712" lon="1.71467">
        <ele>108</ele>
        <time>2017-03-16T15:14:25Z</time>
      </trkpt>
      <trkpt lat="49.47748" lon="1.71464">
        <ele>108</ele>
        <time>2017-03-16T15:14:33Z</time>
      </trkpt>
      <trkpt lat="49.47772" lon="1.71413">
        <ele>107</ele>
        <time>2017-03-16T15:14:40Z</time>
      </trkpt>
      <trkpt lat="49.47798" lon="1.71365">
        <ele>106</ele>
        <time>2017-03-16T15:14:49Z</time>
      </trkpt>
      <trkpt lat="49.47824" lon="1.71313">
        <ele>106</ele>
        <time>2017-03-16T15:14:59Z</time>
      </trkpt>
      <trkpt lat="49.47862" lon="1.71281">
        <ele>105</ele>
        <time>2017-03-16T15:15:07Z</time>
      </trkpt>
      <trkpt lat="49.47903" lon="1.71265">
        <ele>103</ele>
        <time>2017-03-16T15:15:15Z</time>
      </trkpt>
      <trkpt lat="49.47943" lon="1.71255">
        <ele>102</ele>
        <time>2017-03-16T15:15:22Z</time>
      </trkpt>
      <trkpt lat="49.47987" lon="1.71254">
        <ele>101</ele>
        <time>2017-03-16T15:15:29Z</time>
      </trkpt>
      <trkpt lat="49.48031" lon="1.71261">
        <ele>100</ele>
        <time>2017-03-16T15:15:37Z</time>
      </trkpt>
      <trkpt lat="49.48073" lon="1.71271">
        <ele>101</ele>
        <time>2017-03-16T15:15:45Z</time>
      </trkpt>
      <trkpt lat="49.48116" lon="1.71281">
        <ele>101</ele>
        <time>2017-03-16T15:15:53Z</time>
      </trkpt>
      <trkpt lat="49.48157" lon="1.7129">
        <ele>102</ele>
        <time>2017-03-16T15:16:02Z</time>
      </trkpt>
      <trkpt lat="49.482" lon="1.713">
        <ele>102</ele>
        <time>2017-03-16T15:16:11Z</time>
      </trkpt>
      <trkpt lat="49.48244" lon="1.71309">
        <ele>102</ele>
        <time>2017-03-16T15:16:21Z</time>
      </trkpt>
      <trkpt lat="49.48286" lon="1.71315">
        <ele>101</ele>
        <time>2017-03-16T15:16:29Z</time>
      </trkpt>
      <trkpt lat="49.48327" lon="1.71325">
        <ele>98</ele>
        <time>2017-03-16T15:16:41Z</time>
      </trkpt>
      <trkpt lat="49.48359" lon="1.71304">
        <ele>94</ele>
        <time>2017-03-16T15:16:51Z</time>
      </trkpt>
      <trkpt lat="49.4837" lon="1.71244">
        <ele>94</ele>
        <time>2017-03-16T15:16:58Z</time>
      </trkpt>
      <trkpt lat="49.48382" lon="1.71179">
        <ele>94</ele>
        <time>2017-03-16T15:17:05Z</time>
      </trkpt>
      <trkpt lat="49.48411" lon="1.71133">
        <ele>95</ele>
        <time>2017-03-16T15:17:13Z</time>
      </trkpt>
      <trkpt lat="49.4844" lon="1.71085">
        <ele>97</ele>
        <time>2017-03-16T15:17:21Z</time>
      </trkpt>
      <trkpt lat="49.48466" lon="1.71039">
        <ele>99</ele>
        <time>2017-03-16T15:17:29Z</time>
      </trkpt>
      <trkpt lat="49.48492" lon="1.70992">
        <ele>100</ele>
        <time>2017-03-16T15:17:37Z</time>
      </trkpt>
      <trkpt lat="49.4852" lon="1.70944">
        <ele>101</ele>
        <time>2017-03-16T15:17:47Z</time>
      </trkpt>
      <trkpt lat="49.48549" lon="1.70895">
        <ele>102</ele>
        <time>2017-03-16T15:17:58Z</time>
      </trkpt>
      <trkpt lat="49.48576" lon="1.70851">
        <ele>102</ele>
        <time>2017-03-16T15:18:12Z</time>
      </trkpt>
      <trkpt lat="49.48603" lon="1.70804">
        <ele>103</ele>
        <time>2017-03-16T15:18:29Z</time>
      </trkpt>
      <trkpt lat="49.4863" lon="1.70756">
        <ele>105</ele>
        <time>2017-03-16T15:18:45Z</time>
      </trkpt>
      <trkpt lat="49.48658" lon="1.70705">
        <ele>106</ele>
        <time>2017-03-16T15:18:58Z</time>
      </trkpt>
      <trkpt lat="49.4868" lon="1.70655">
        <ele>107</ele>
        <time>2017-03-16T15:19:09Z</time>
      </trkpt>
      <trkpt lat="49.48647" lon="1.70616">
        <ele>107</ele>
        <time>2017-03-16T15:19:20Z</time>
      </trkpt>
      <trkpt lat="49.48656" lon="1.7056">
        <ele>108</ele>
        <time>2017-03-16T15:19:33Z</time>
      </trkpt>
      <trkpt lat="49.48669" lon="1.70501">
        <ele>110</ele>
        <time>2017-03-16T15:19:50Z</time>
      </trkpt>
      <trkpt lat="49.4868" lon="1.70439">
        <ele>111</ele>
        <time>2017-03-16T15:20:08Z</time>
      </trkpt>
      <trkpt lat="49.48689" lon="1.70377">
        <ele>112</ele>
        <time>2017-03-16T15:20:25Z</time>
      </trkpt>
      <trkpt lat="49.487" lon="1.7031">
        <ele>113</ele>
        <time>2017-03-16T15:20:41Z</time>
      </trkpt>
      <trkpt lat="49.48699" lon="1.70244">
        <ele>114</ele>
        <time>2017-03-16T15:20:53Z</time>
      </trkpt>
      <trkpt lat="49.48694" lon="1.70181">
        <ele>116</ele>
        <time>2017-03-16T15:21:04Z</time>
      </trkpt>
      <trkpt lat="49.48693" lon="1.70119">
        <ele>117</ele>
        <time>2017-03-16T15:21:15Z</time>
      </trkpt>
      <trkpt lat="49.48689" lon="1.70059">
        <ele>117</ele>
        <time>2017-03-16T15:21:29Z</time>
      </trkpt>
      <trkpt lat="49.48683" lon="1.69997">
        <ele>118</ele>
        <time>2017-03-16T15:21:41Z</time>
      </trkpt>
      <trkpt lat="49.48682" lon="1.69938">
        <ele>118</ele>
        <time>2017-03-16T15:21:58Z</time>
      </trkpt>
      <trkpt lat="49.48683" lon="1.69926">
        <ele>118</ele>
        <time>2017-03-16T15:22:58Z</time>
      </trkpt>
    </trkseg>
  </trk>
</gpx>